Observation data for Fritch on 05/24/2020      Previous  Date  Next       Current Mesonet Observations  Soil Data  Daily Summary Page  Observations in Plain Language
KFR1 240500Z 17016G21KT 22/09 A2977 RMK A01 T02180093  RH  045%=      5-min Rain = 0
KFR1 240501Z 17015G21KT 22/09 A2977 RMK A01 T02180094  RH  045%=      5-min Rain = 0
KFR1 240502Z 16019KT 22/09 A2977 RMK A01 T02170093  RH  045%=      5-min Rain = 0
KFR1 240503Z 17016KT 22/09 A2977 RMK A01 T02170094  RH  045%=      5-min Rain = 0
KFR1 240504Z 16016G21KT 22/09 A2977 RMK A01 T02170094  RH  045%=      5-min Rain = 0
KFR1 240505Z 17018G24KT 22/09 A2977 RMK A01 T02170094  RH  045%=      5-min Rain = 0
KFR1 240506Z 17016KT 22/09 A2977 RMK A01 T02170094  RH  045%=      5-min Rain = 0
KFR1 240507Z 17011G18KT 22/09 A2978 RMK A01 T02170094  RH  045%=      5-min Rain = 0
KFR1 240508Z 16016G21KT 22/09 A2977 RMK A01 T02170094  RH  046%=      5-min Rain = 0
KFR1 240509Z 16018KT 22/09 A2978 RMK A01 T02160094  RH  046%=      5-min Rain = 0
KFR1 240510Z 17016G21KT 22/09 A2978 RMK A01 T02170094  RH  046%=      5-min Rain = 0
KFR1 240511Z 17016G23KT 22/09 A2977 RMK A01 T02170094  RH  046%=      5-min Rain = 0
KFR1 240512Z 17018G23KT 22/09 A2978 RMK A01 T02170094  RH  046%=      5-min Rain = 0
KFR1 240513Z 16016G21KT 22/09 A2978 RMK A01 T02170094  RH  046%=      5-min Rain = 0
KFR1 240514Z 17016KT 22/10 A2978 RMK A01 T02170095  RH  046%=      5-min Rain = 0
KFR1 240515Z 17019KT 22/09 A2977 RMK A01 T02160094  RH  046%=      5-min Rain = 0
KFR1 240516Z 17019G24KT 22/09 A2977 RMK A01 T02160094  RH  045%=      5-min Rain = 0
KFR1 240517Z 17015G20KT 22/09 A2977 RMK A01 T02170094  RH  045%=      5-min Rain = 0
KFR1 240518Z 17019G25KT 22/10 A2977 RMK A01 T02170095  RH  046%=      5-min Rain = 0
KFR1 240519Z 17020G26KT 22/10 A2977 RMK A01 T02170095  RH  046%=      5-min Rain = 0
KFR1 240520Z 17015G23KT 22/10 A2977 RMK A01 T02170095  RH  046%=      5-min Rain = 0
KFR1 240521Z 17021G27KT 22/10 A2977 RMK A01 T02160095  RH  046%=      5-min Rain = 0
KFR1 240522Z 16018G24KT 22/10 A2977 RMK A01 T02160096  RH  046%=      5-min Rain = 0
KFR1 240523Z 17016G22KT 22/10 A2977 RMK A01 T02150096  RH  047%=      5-min Rain = 0
KFR1 240524Z 17023KT 22/10 A2977 RMK A01 T02150097  RH  047%=      5-min Rain = 0
KFR1 240525Z 17022G27KT 21/10 A2977 RMK A01 T02140097  RH  047%=      5-min Rain = 0
KFR1 240526Z 17023KT 21/10 A2977 RMK A01 T02140097  RH  047%=      5-min Rain = 0
KFR1 240527Z 17017G24KT 21/10 A2977 RMK A01 T02130097  RH  048%=      5-min Rain = 0
KFR1 240528Z 16020G26KT 21/10 A2977 RMK A01 T02130098  RH  048%=      5-min Rain = 0
KFR1 240529Z 16020KT 21/10 A2977 RMK A01 T02130098  RH  048%=      5-min Rain = 0
KFR1 240530Z 17024G33KT 21/10 A2976 RMK A01 T02120098  RH  048%=      5-min Rain = 0
KFR1 240531Z 16017KT 21/10 A2977 RMK A01 T02120098  RH  048%=      5-min Rain = 0
KFR1 240532Z 17020G28KT 21/10 A2977 RMK A01 T02120098  RH  048%=      5-min Rain = 0
KFR1 240533Z 16020G26KT 21/10 A2977 RMK A01 T02110098  RH  048%=      5-min Rain = 0
KFR1 240534Z 17020G27KT 21/10 A2976 RMK A01 T02110099  RH  049%=      5-min Rain = 0
KFR1 240535Z 16019KT 21/10 A2976 RMK A01 T02110099  RH  049%=      5-min Rain = 0
KFR1 240536Z 17022G28KT 21/10 A2976 RMK A01 T02110098  RH  049%=      5-min Rain = 0
KFR1 240537Z 17021G27KT 21/10 A2976 RMK A01 T02100098  RH  049%=      5-min Rain = 0
KFR1 240538Z 17022KT 21/10 A2976 RMK A01 T02110099  RH  049%=      5-min Rain = 0
KFR1 240539Z 17023G28KT 21/10 A2976 RMK A01 T02110099  RH  049%=      5-min Rain = 0
KFR1 240540Z 17017G22KT 21/10 A2976 RMK A01 T02100099  RH  049%=      5-min Rain = 0
KFR1 240541Z 17021G28KT 21/10 A2976 RMK A01 T02100099  RH  049%=      5-min Rain = 0
KFR1 240542Z 17019G24KT 21/10 A2976 RMK A01 T02100099  RH  049%=      5-min Rain = 0
KFR1 240543Z 17018G25KT 21/10 A2976 RMK A01 T02100099  RH  049%=      5-min Rain = 0
KFR1 240544Z 17020KT 21/10 A2976 RMK A01 T02100099  RH  049%=      5-min Rain = 0
KFR1 240545Z 17018G24KT 21/10 A2976 RMK A01 T02090099  RH  049%=      5-min Rain = 0
KFR1 240546Z 17021KT 21/10 A2976 RMK A01 T02090099  RH  049%=      5-min Rain = 0
KFR1 240547Z 17018G26KT 21/10 A2976 RMK A01 T02090100  RH  050%=      5-min Rain = 0
KFR1 240548Z 17019G24KT 21/10 A2976 RMK A01 T02080100  RH  050%=      5-min Rain = 0
KFR1 240549Z 17020G25KT 21/10 A2976 RMK A01 T02080100  RH  050%=      5-min Rain = 0
KFR1 240550Z 17021G26KT 21/10 A2976 RMK A01 T02080101  RH  050%=      5-min Rain = 0
KFR1 240551Z 17022G27KT 21/10 A2976 RMK A01 T02070100  RH  050%=      5-min Rain = 0
KFR1 240552Z 17016G22KT 21/10 A2976 RMK A01 T02070100  RH  050%=      5-min Rain = 0
KFR1 240553Z 18020KT 21/10 A2976 RMK A01 T02070100  RH  050%=      5-min Rain = 0
KFR1 240554Z 18017KT 21/10 A2976 RMK A01 T02070100  RH  050%=      5-min Rain = 0
KFR1 240555Z 18020KT 21/10 A2976 RMK A01 T02060100  RH  050%=      5-min Rain = 0
KFR1 240556Z 17019G25KT 21/10 A2976 RMK A01 T02060099  RH  050%=      5-min Rain = 0
KFR1 240557Z 17021G29KT 21/10 A2976 RMK A01 T02070098  RH  050%=      5-min Rain = 0
KFR1 240558Z 17022G27KT 21/10 A2976 RMK A01 T02070098  RH  049%=      5-min Rain = 0
KFR1 240559Z 17020G28KT 21/10 A2976 RMK A01 T02080098  RH  049%=      5-min Rain = 0
KFR1 240600Z 17018G27KT 21/10 A2976 RMK A01 T02090098  RH  049%=      5-min Rain = 0
KFR1 240601Z 18019KT 21/10 A2976 RMK A01 T02090097  RH  049%=      5-min Rain = 0
KFR1 240602Z 18017G24KT 21/10 A2976 RMK A01 T02090097  RH  049%=      5-min Rain = 0
KFR1 240603Z 18018G25KT 21/10 A2976 RMK A01 T02090097  RH  049%=      5-min Rain = 0
KFR1 240604Z 18016KT 21/10 A2976 RMK A01 T02090097  RH  049%=      5-min Rain = 0
KFR1 240605Z 18022G28KT 21/10 A2976 RMK A01 T02090097  RH  049%=      5-min Rain = 0
KFR1 240606Z 17019G27KT 21/10 A2976 RMK A01 T02090097  RH  048%=      5-min Rain = 0
KFR1 240607Z 18022G27KT 21/10 A2976 RMK A01 T02090097  RH  048%=      5-min Rain = 0
KFR1 240608Z 17020G27KT 21/10 A2976 RMK A01 T02100097  RH  048%=      5-min Rain = 0
KFR1 240609Z 18016G24KT 21/10 A2977 RMK A01 T02100096  RH  048%=      5-min Rain = 0
KFR1 240610Z 18015G21KT 21/10 A2977 RMK A01 T02100097  RH  048%=      5-min Rain = 0
KFR1 240611Z 18019G26KT 21/10 A2977 RMK A01 T02100096  RH  048%=      5-min Rain = 0
KFR1 240612Z 18022G27KT 21/10 A2977 RMK A01 T02100097  RH  048%=      5-min Rain = 0
KFR1 240613Z 18022G28KT 21/10 A2977 RMK A01 T02100096  RH  048%=      5-min Rain = 0
KFR1 240614Z 18018G25KT 21/10 A2977 RMK A01 T02100096  RH  048%=      5-min Rain = 0
KFR1 240615Z 18021KT 21/10 A2977 RMK A01 T02110096  RH  048%=      5-min Rain = 0
KFR1 240616Z 18016G23KT 21/10 A2977 RMK A01 T02110097  RH  048%=      5-min Rain = 0
KFR1 240617Z 18020KT 21/10 A2977 RMK A01 T02110097  RH  048%=      5-min Rain = 0
KFR1 240618Z 18018G25KT 21/10 A2977 RMK A01 T02100097  RH  048%=      5-min Rain = 0
KFR1 240619Z 18020G25KT 21/10 A2977 RMK A01 T02100097  RH  048%=      5-min Rain = 0
KFR1 240620Z 18021KT 21/10 A2977 RMK A01 T02100097  RH  048%=      5-min Rain = 0
KFR1 240621Z 17020KT 21/10 A2977 RMK A01 T02100097  RH  049%=      5-min Rain = 0
KFR1 240622Z 18016G21KT 21/10 A2977 RMK A01 T02100097  RH  049%=      5-min Rain = 0
KFR1 240623Z 17019G24KT 21/10 A2977 RMK A01 T02090097  RH  049%=      5-min Rain = 0
KFR1 240624Z 18018KT 21/10 A2977 RMK A01 T02090097  RH  049%=      5-min Rain = 0
KFR1 240625Z 18018KT 21/10 A2977 RMK A01 T02090098  RH  049%=      5-min Rain = 0
KFR1 240626Z 18018G24KT 21/10 A2977 RMK A01 T02090097  RH  049%=      5-min Rain = 0
KFR1 240627Z 18017G22KT 21/10 A2977 RMK A01 T02090097  RH  049%=      5-min Rain = 0
KFR1 240628Z 18017KT 21/10 A2977 RMK A01 T02080097  RH  049%=      5-min Rain = 0
KFR1 240629Z 18014G20KT 21/10 A2977 RMK A01 T02080097  RH  049%=      5-min Rain = 0
KFR1 240630Z 18015KT 21/10 A2977 RMK A01 T02080097  RH  049%=      5-min Rain = 0
KFR1 240631Z 17016G21KT 21/10 A2977 RMK A01 T02080097  RH  049%=      5-min Rain = 0
KFR1 240632Z 17017KT 21/10 A2977 RMK A01 T02070097  RH  049%=      5-min Rain = 0
KFR1 240633Z 18016KT 21/10 A2977 RMK A01 T02080097  RH  049%=      5-min Rain = 0
KFR1 240634Z 18015G20KT 21/10 A2977 RMK A01 T02080098  RH  049%=      5-min Rain = 0
KFR1 240635Z 17014G21KT 21/10 A2977 RMK A01 T02070097  RH  049%=      5-min Rain = 0
KFR1 240636Z 18015G20KT 21/10 A2977 RMK A01 T02070097  RH  049%=      5-min Rain = 0
KFR1 240637Z 18015KT 21/10 A2977 RMK A01 T02070097  RH  049%=      5-min Rain = 0
KFR1 240638Z 18015KT 21/10 A2977 RMK A01 T02070097  RH  049%=      5-min Rain = 0
KFR1 240639Z 18015KT 21/10 A2977 RMK A01 T02070097  RH  049%=      5-min Rain = 0
KFR1 240640Z 18011G17KT 21/10 A2977 RMK A01 T02070097  RH  049%=      5-min Rain = 0
KFR1 240641Z 18013G18KT 21/10 A2977 RMK A01 T02070097  RH  049%=      5-min Rain = 0
KFR1 240642Z 17011KT 21/10 A2977 RMK A01 T02070097  RH  049%=      5-min Rain = 0
KFR1 240643Z 18012KT 21/10 A2977 RMK A01 T02060097  RH  049%=      5-min Rain = 0
KFR1 240644Z 18011KT 21/10 A2977 RMK A01 T02060097  RH  049%=      5-min Rain = 0
KFR1 240645Z 18010KT 21/10 A2977 RMK A01 T02060097  RH  050%=      5-min Rain = 0
KFR1 240646Z 17011G16KT 21/10 A2978 RMK A01 T02060097  RH  050%=      5-min Rain = 0
KFR1 240647Z 18010KT 21/10 A2978 RMK A01 T02050097  RH  050%=      5-min Rain = 0
KFR1 240648Z 18009KT 21/10 A2978 RMK A01 T02050098  RH  050%=      5-min Rain = 0
KFR1 240649Z 18009KT 21/10 A2978 RMK A01 T02050098  RH  050%=      5-min Rain = 0
KFR1 240650Z 17006G11KT 20/10 A2978 RMK A01 T02040098  RH  051%=      5-min Rain = 0
KFR1 240651Z 17008KT 20/10 A2978 RMK A01 T02030098  RH  051%=      5-min Rain = 0
KFR1 240652Z 17010KT 20/10 A2978 RMK A01 T02020098  RH  051%=      5-min Rain = 0
KFR1 240653Z 17008KT 20/10 A2978 RMK A01 T02020099  RH  051%=      5-min Rain = 0
KFR1 240654Z 16007G13KT 20/10 A2978 RMK A01 T02010099  RH  052%=      5-min Rain = 0
KFR1 240655Z 17010KT 20/10 A2978 RMK A01 T02010099  RH  052%=      5-min Rain = 0
KFR1 240656Z 17008KT 20/10 A2978 RMK A01 T02010099  RH  052%=      5-min Rain = 0
KFR1 240657Z 16008KT 20/10 A2978 RMK A01 T02010099  RH  052%=      5-min Rain = 0
KFR1 240658Z 16008KT 20/10 A2979 RMK A01 T02000099  RH  052%=      5-min Rain = 0
KFR1 240659Z 16007G12KT 20/10 A2979 RMK A01 T02000100  RH  052%=      5-min Rain = 0
KFR1 240700Z 14005KT 20/10 A2979 RMK A01 T02000100  RH  052%=      5-min Rain = 0
KFR1 240701Z 14005KT 20/10 A2979 RMK A01 T01990100  RH  053%=      5-min Rain = 0
KFR1 240702Z 14004KT 20/10 A2979 RMK A01 T01990100  RH  053%=      5-min Rain = 0
KFR1 240703Z 15004KT 20/10 A2979 RMK A01 T01990100  RH  053%=      5-min Rain = 0
KFR1 240704Z 16003KT 20/10 A298 RMK A01 T01980100  RH  053%=      5-min Rain = 0
KFR1 240705Z 17002KT 20/10 A298 RMK A01 T01980100  RH  053%=      5-min Rain = 0
KFR1 240706Z 16004KT 20/10 A298 RMK A01 T01970101  RH  054%=      5-min Rain = 0
KFR1 240707Z 16006KT 20/10 A298 RMK A01 T01960101  RH  054%=      5-min Rain = 0
KFR1 240708Z 15004KT 20/10 A298 RMK A01 T01960101  RH  054%=      5-min Rain = 0
KFR1 240709Z 13003KT 20/10 A298 RMK A01 T01960101  RH  054%=      5-min Rain = 0
KFR1 240710Z 14004KT 20/10 A298 RMK A01 T01960101  RH  054%=      5-min Rain = 0
KFR1 240711Z 13003KT 20/10 A298 RMK A01 T01950101  RH  054%=      5-min Rain = 0
KFR1 240712Z 10002KT 20/10 A298 RMK A01 T01950102  RH  055%=      5-min Rain = 0
KFR1 240713Z 12006KT 19/10 A298 RMK A01 T01940102  RH  055%=      5-min Rain = 0
KFR1 240714Z 11004KT 19/10 A298 RMK A01 T01940102  RH  055%=      5-min Rain = 0
KFR1 240715Z 11006KT 19/10 A298 RMK A01 T01940103  RH  055%=      5-min Rain = 0
KFR1 240716Z 08003KT 19/10 A298 RMK A01 T01940103  RH  056%=      5-min Rain = 0
KFR1 240717Z 08001KT 19/10 A298 RMK A01 T01930103  RH  056%=      5-min Rain = 0
KFR1 240718Z 15002KT 19/10 A298 RMK A01 T01930103  RH  056%=      5-min Rain = 0
KFR1 240719Z 16007KT 19/10 A298 RMK A01 T01930103  RH  056%=      5-min Rain = 0
KFR1 240720Z 17007KT 19/10 A298 RMK A01 T01930103  RH  056%=      5-min Rain = 0
KFR1 240721Z 15004KT 19/10 A298 RMK A01 T01920103  RH  056%=      5-min Rain = 0
KFR1 240722Z 15005KT 19/10 A298 RMK A01 T01920103  RH  056%=      5-min Rain = 0
KFR1 240723Z 16004KT 19/10 A298 RMK A01 T01920103  RH  056%=      5-min Rain = 0
KFR1 240724Z 18005KT 19/10 A298 RMK A01 T01920103  RH  056%=      5-min Rain = 0
KFR1 240725Z 18007KT 19/10 A298 RMK A01 T01910103  RH  057%=      5-min Rain = 0
KFR1 240726Z 18007KT 19/10 A298 RMK A01 T01910103  RH  056%=      5-min Rain = 0
KFR1 240727Z 17007KT 19/10 A298 RMK A01 T01920103  RH  056%=      5-min Rain = 0
KFR1 240728Z 19006KT 19/10 A298 RMK A01 T01920103  RH  056%=      5-min Rain = 0
KFR1 240729Z 19005KT 19/10 A298 RMK A01 T01910103  RH  056%=      5-min Rain = 0
KFR1 240730Z 20004KT 19/10 A298 RMK A01 T01920103  RH  056%=      5-min Rain = 0
KFR1 240731Z 18006KT 19/10 A298 RMK A01 T01920103  RH  056%=      5-min Rain = 0
KFR1 240732Z 18006KT 19/10 A298 RMK A01 T01920102  RH  056%=      5-min Rain = 0
KFR1 240733Z 18003KT 19/10 A298 RMK A01 T01920102  RH  056%=      5-min Rain = 0
KFR1 240734Z 21004KT 19/10 A298 RMK A01 T01920102  RH  056%=      5-min Rain = 0
KFR1 240735Z 21003KT 19/10 A298 RMK A01 T01920102  RH  056%=      5-min Rain = 0
KFR1 240736Z 20003KT 19/10 A298 RMK A01 T01920102  RH  056%=      5-min Rain = 0
KFR1 240737Z 20004KT 19/10 A298 RMK A01 T01920102  RH  056%=      5-min Rain = 0
KFR1 240738Z 21004KT 19/10 A2981 RMK A01 T01920102  RH  056%=      5-min Rain = 0
KFR1 240739Z 22006KT 19/10 A2981 RMK A01 T01910102  RH  056%=      5-min Rain = 0
KFR1 240740Z 21005KT 19/10 A2981 RMK A01 T01920102  RH  056%=      5-min Rain = 0
KFR1 240741Z 21008KT 19/10 A2981 RMK A01 T01920102  RH  056%=      5-min Rain = 0
KFR1 240742Z 21007KT 19/10 A2981 RMK A01 T01920102  RH  056%=      5-min Rain = 0
KFR1 240743Z 21005KT 19/10 A2981 RMK A01 T01920102  RH  056%=      5-min Rain = 0
KFR1 240744Z 20007KT 19/10 A2981 RMK A01 T01920102  RH  056%=      5-min Rain = 0
KFR1 240745Z 21006KT 19/10 A2981 RMK A01 T01910102  RH  056%=      5-min Rain = 0
KFR1 240746Z 21006KT 19/10 A298 RMK A01 T01910102  RH  056%=      5-min Rain = 0
KFR1 240747Z 19005KT 19/10 A2981 RMK A01 T01910103  RH  057%=      5-min Rain = 0
KFR1 240748Z 18005KT 19/10 A2981 RMK A01 T01900102  RH  057%=      5-min Rain = 0
KFR1 240749Z 19004KT 19/10 A2981 RMK A01 T01890103  RH  057%=      5-min Rain = 0
KFR1 240750Z 17004KT 19/10 A2981 RMK A01 T01890103  RH  057%=      5-min Rain = 0
KFR1 240751Z 17004KT 19/10 A2981 RMK A01 T01880103  RH  057%=      5-min Rain = 0
KFR1 240752Z 18005KT 19/10 A2981 RMK A01 T01880103  RH  057%=      5-min Rain = 0
KFR1 240753Z 17004KT 19/10 A2981 RMK A01 T01880103  RH  057%=      5-min Rain = 0
KFR1 240754Z 16007KT 19/10 A2981 RMK A01 T01880103  RH  058%=      5-min Rain = 0
KFR1 240755Z 16005KT 19/10 A2981 RMK A01 T01880103  RH  058%=      5-min Rain = 0
KFR1 240756Z 17006KT 19/10 A2981 RMK A01 T01880103  RH  058%=      5-min Rain = 0
KFR1 240757Z 17006KT 19/10 A2981 RMK A01 T01880103  RH  058%=      5-min Rain = 0
KFR1 240758Z 17008KT 19/10 A2981 RMK A01 T01880103  RH  058%=      5-min Rain = 0
KFR1 240759Z 18008KT 19/10 A2981 RMK A01 T01880103  RH  058%=      5-min Rain = 0
KFR1 240800Z 16005KT 19/10 A2981 RMK A01 T01880104  RH  058%=      5-min Rain = 0
KFR1 240801Z 17007KT 19/10 A2981 RMK A01 T01880104  RH  058%=      5-min Rain = 0
KFR1 240802Z 17005KT 19/10 A2981 RMK A01 T01880104  RH  058%=      5-min Rain = 0
KFR1 240803Z 17004KT 19/10 A2981 RMK A01 T01870104  RH  058%=      5-min Rain = 0
KFR1 240804Z 17006KT 19/10 A2981 RMK A01 T01860104  RH  059%=      5-min Rain = 0
KFR1 240805Z 18006KT 19/11 A2981 RMK A01 T01870105  RH  059%=      5-min Rain = 0
KFR1 240806Z 18007KT 19/10 A2981 RMK A01 T01860104  RH  059%=      5-min Rain = 0
KFR1 240807Z 17005KT 19/10 A2981 RMK A01 T01860104  RH  059%=      5-min Rain = 0
KFR1 240808Z 17006KT 19/10 A2981 RMK A01 T01860104  RH  059%=      5-min Rain = 0
KFR1 240809Z 16009KT 19/10 A2981 RMK A01 T01860104  RH  059%=      5-min Rain = 0
KFR1 240810Z 16007KT 19/10 A2981 RMK A01 T01870103  RH  058%=      5-min Rain = 0
KFR1 240811Z 16007KT 19/10 A2981 RMK A01 T01870103  RH  058%=      5-min Rain = 0
KFR1 240812Z 17007KT 19/10 A2981 RMK A01 T01870103  RH  058%=      5-min Rain = 0
KFR1 240813Z 16007KT 19/10 A2981 RMK A01 T01870103  RH  058%=      5-min Rain = 0
KFR1 240814Z 17006KT 19/10 A2981 RMK A01 T01870103  RH  058%=      5-min Rain = 0
KFR1 240815Z 16009KT 19/10 A2981 RMK A01 T01870102  RH  058%=      5-min Rain = 0
KFR1 240816Z 16006KT 19/10 A2981 RMK A01 T01870102  RH  058%=      5-min Rain = 0
KFR1 240817Z 17006KT 19/10 A2981 RMK A01 T01870102  RH  058%=      5-min Rain = 0
KFR1 240818Z 17009KT 19/10 A2981 RMK A01 T01870102  RH  058%=      5-min Rain = 0
KFR1 240819Z 18006KT 19/10 A2981 RMK A01 T01870102  RH  057%=      5-min Rain = 0
KFR1 240820Z 18008KT 19/10 A2981 RMK A01 T01870101  RH  057%=      5-min Rain = 0
KFR1 240821Z 17007KT 19/10 A2981 RMK A01 T01880101  RH  057%=      5-min Rain = 0
KFR1 240822Z 18007KT 19/10 A2981 RMK A01 T01890101  RH  057%=      5-min Rain = 0
KFR1 240823Z 18007KT 19/10 A2981 RMK A01 T01890101  RH  057%=      5-min Rain = 0
KFR1 240824Z 18006G11KT 19/10 A2981 RMK A01 T01870101  RH  057%=      5-min Rain = 0
KFR1 240825Z 17007KT 19/10 A2981 RMK A01 T01880101  RH  057%=      5-min Rain = 0
KFR1 240826Z 17008KT 19/10 A2981 RMK A01 T01880100  RH  057%=      5-min Rain = 0
KFR1 240827Z 17008KT 19/10 A2981 RMK A01 T01880100  RH  056%=      5-min Rain = 0
KFR1 240828Z 17007KT 19/10 A2981 RMK A01 T01880099  RH  056%=      5-min Rain = 0
KFR1 240829Z 17005KT 19/10 A2981 RMK A01 T01880099  RH  056%=      5-min Rain = 0
KFR1 240830Z 18005KT 19/10 A2981 RMK A01 T01880100  RH  056%=      5-min Rain = 0
KFR1 240831Z 18005KT 19/10 A2981 RMK A01 T01870099  RH  057%=      5-min Rain = 0
KFR1 240832Z 19004KT 19/10 A2981 RMK A01 T01870099  RH  057%=      5-min Rain = 0
KFR1 240833Z 19005KT 19/10 A2981 RMK A01 T01870099  RH  057%=      5-min Rain = 0
KFR1 240834Z 18005KT 19/10 A2981 RMK A01 T01870099  RH  056%=      5-min Rain = 0
KFR1 240835Z 19005KT 19/10 A2981 RMK A01 T01870098  RH  056%=      5-min Rain = 0
KFR1 240836Z 19004KT 19/10 A2981 RMK A01 T01880098  RH  056%=      5-min Rain = 0
KFR1 240837Z 18005KT 19/10 A2981 RMK A01 T01880099  RH  056%=      5-min Rain = 0
KFR1 240838Z 20006KT 19/10 A2981 RMK A01 T01880099  RH  056%=      5-min Rain = 0
KFR1 240839Z 18005KT 19/10 A2981 RMK A01 T01870098  RH  056%=      5-min Rain = 0
KFR1 240840Z 18006KT 19/10 A2981 RMK A01 T01870098  RH  056%=      5-min Rain = 0
KFR1 240841Z 19006KT 19/10 A2981 RMK A01 T01870099  RH  056%=      5-min Rain = 0
KFR1 240842Z 20008KT 19/10 A2981 RMK A01 T01870099  RH  056%=      5-min Rain = 0
KFR1 240843Z 19009KT 19/10 A2981 RMK A01 T01880099  RH  056%=      5-min Rain = 0
KFR1 240844Z 19010KT 19/10 A2981 RMK A01 T01890099  RH  056%=      5-min Rain = 0
KFR1 240845Z 20012KT 19/10 A2981 RMK A01 T01890098  RH  056%=      5-min Rain = 0
KFR1 240846Z 20009KT 19/10 A2981 RMK A01 T01900099  RH  055%=      5-min Rain = 0
KFR1 240847Z 20008KT 19/10 A2981 RMK A01 T01900098  RH  055%=      5-min Rain = 0
KFR1 240848Z 19012G18KT 19/10 A2981 RMK A01 T01900098  RH  055%=      5-min Rain = 0
KFR1 240849Z 19012KT 19/10 A2981 RMK A01 T01900098  RH  055%=      5-min Rain = 0
KFR1 240850Z 20007G13KT 19/10 A2981 RMK A01 T01910097  RH  055%=      5-min Rain = 0
KFR1 240851Z 19007KT 19/10 A2981 RMK A01 T01910098  RH  054%=      5-min Rain = 0
KFR1 240852Z 19007KT 19/10 A2981 RMK A01 T01910098  RH  055%=      5-min Rain = 0
KFR1 240853Z 19006KT 19/10 A2981 RMK A01 T01900098  RH  055%=      5-min Rain = 0
KFR1 240854Z 20006KT 19/10 A2981 RMK A01 T01890098  RH  055%=      5-min Rain = 0
KFR1 240855Z 20009KT 19/10 A2981 RMK A01 T01890098  RH  055%=      5-min Rain = 0
KFR1 240856Z 19010KT 19/10 A2981 RMK A01 T01890098  RH  055%=      5-min Rain = 0
KFR1 240857Z 20009KT 19/10 A2981 RMK A01 T01890097  RH  055%=      5-min Rain = 0
KFR1 240858Z 20008KT 19/10 A2981 RMK A01 T01900096  RH  054%=      5-min Rain = 0
KFR1 240859Z 20010KT 19/10 A2981 RMK A01 T01910096  RH  054%=      5-min Rain = 0
KFR1 240900Z 20008KT 19/10 A2981 RMK A01 T01910096  RH  054%=      5-min Rain = 0
KFR1 240901Z 20008KT 19/10 A2981 RMK A01 T01910096  RH  054%=      5-min Rain = 0
KFR1 240902Z 19010KT 19/10 A2981 RMK A01 T01910096  RH  054%=      5-min Rain = 0
KFR1 240903Z 19008KT 19/10 A2981 RMK A01 T01910095  RH  054%=      5-min Rain = 0
KFR1 240904Z 20011KT 19/10 A2981 RMK A01 T01910095  RH  054%=      5-min Rain = 0
KFR1 240905Z 20007KT 19/10 A2981 RMK A01 T01910095  RH  054%=      5-min Rain = 0
KFR1 240906Z 20007KT 19/10 A2981 RMK A01 T01910095  RH  054%=      5-min Rain = 0
KFR1 240907Z 19008KT 19/10 A2981 RMK A01 T01900095  RH  054%=      5-min Rain = 0
KFR1 240908Z 20008KT 19/10 A2981 RMK A01 T01900095  RH  054%=      5-min Rain = 0
KFR1 240909Z 20009KT 19/09 A2981 RMK A01 T01900094  RH  054%=      5-min Rain = 0
KFR1 240910Z 20009KT 19/09 A2981 RMK A01 T01910094  RH  054%=      5-min Rain = 0
KFR1 240911Z 21009KT 19/09 A2981 RMK A01 T01900094  RH  054%=      5-min Rain = 0
KFR1 240912Z 20009KT 19/09 A2981 RMK A01 T01910094  RH  053%=      5-min Rain = 0
KFR1 240913Z 20009KT 19/09 A2981 RMK A01 T01910094  RH  053%=      5-min Rain = 0
KFR1 240914Z 20009KT 19/09 A2981 RMK A01 T01910094  RH  053%=      5-min Rain = 0
KFR1 240915Z 20009KT 19/09 A2981 RMK A01 T01910094  RH  053%=      5-min Rain = 0
KFR1 240916Z 18011G16KT 19/09 A2981 RMK A01 T01910094  RH  053%=      5-min Rain = 0
KFR1 240917Z 20012KT 19/09 A2981 RMK A01 T01900094  RH  054%=      5-min Rain = 0
KFR1 240918Z 19011KT 19/09 A2981 RMK A01 T01900094  RH  053%=      5-min Rain = 0
KFR1 240919Z 19009KT 19/09 A2981 RMK A01 T01910094  RH  053%=      5-min Rain = 0
KFR1 240920Z 20012KT 19/09 A2981 RMK A01 T01900093  RH  053%=      5-min Rain = 0
KFR1 240921Z 18012KT 19/09 A2981 RMK A01 T01910093  RH  053%=      5-min Rain = 0
KFR1 240922Z 19010KT 19/09 A2981 RMK A01 T01910093  RH  053%=      5-min Rain = 0
KFR1 240923Z 19010KT 19/09 A2981 RMK A01 T01910093  RH  053%=      5-min Rain = 0
KFR1 240924Z 19011G16KT 19/09 A2981 RMK A01 T01910093  RH  053%=      5-min Rain = 0
KFR1 240925Z 19010KT 19/09 A2981 RMK A01 T01910093  RH  053%=      5-min Rain = 0
KFR1 240926Z 20011KT 19/09 A2981 RMK A01 T01910093  RH  053%=      5-min Rain = 0
KFR1 240927Z 20012KT 19/09 A2981 RMK A01 T01910093  RH  053%=      5-min Rain = 0
KFR1 240928Z 19012KT 19/09 A2981 RMK A01 T01910093  RH  053%=      5-min Rain = 0
KFR1 240929Z 19011KT 19/09 A2981 RMK A01 T01910092  RH  053%=      5-min Rain = 0
KFR1 240930Z 19010KT 19/09 A2981 RMK A01 T01920092  RH  053%=      5-min Rain = 0
KFR1 240931Z 19014KT 19/09 A2981 RMK A01 T01910092  RH  053%=      5-min Rain = 0
KFR1 240932Z 19009KT 19/09 A2981 RMK A01 T01920092  RH  052%=      5-min Rain = 0
KFR1 240933Z 18011G16KT 19/09 A2981 RMK A01 T01920092  RH  052%=      5-min Rain = 0
KFR1 240934Z 18011G18KT 19/09 A2981 RMK A01 T01920092  RH  052%=      5-min Rain = 0
KFR1 240935Z 19011KT 19/09 A2981 RMK A01 T01910092  RH  053%=      5-min Rain = 0
KFR1 240936Z 18011KT 19/09 A2981 RMK A01 T01910092  RH  053%=      5-min Rain = 0
KFR1 240937Z 20010KT 19/09 A2981 RMK A01 T01910092  RH  053%=      5-min Rain = 0
KFR1 240938Z 18010KT 19/09 A2981 RMK A01 T01910092  RH  053%=      5-min Rain = 0
KFR1 240939Z 18009KT 19/09 A2981 RMK A01 T01900092  RH  053%=      5-min Rain = 0
KFR1 240940Z 19010KT 19/09 A2981 RMK A01 T01900092  RH  053%=      5-min Rain = 0
KFR1 240941Z 19009KT 19/09 A2982 RMK A01 T01900092  RH  053%=      5-min Rain = 0
KFR1 240942Z 19008KT 19/09 A2982 RMK A01 T01900092  RH  053%=      5-min Rain = 0
KFR1 240943Z 19008KT 19/09 A2982 RMK A01 T01900092  RH  053%=      5-min Rain = 0
KFR1 240944Z 20007KT 19/09 A2982 RMK A01 T01900092  RH  053%=      5-min Rain = 0
KFR1 240945Z 19009KT 19/09 A2982 RMK A01 T01900092  RH  053%=      5-min Rain = 0
KFR1 240946Z 19010KT 19/09 A2982 RMK A01 T01890092  RH  053%=      5-min Rain = 0
KFR1 240947Z 18012KT 19/09 A2982 RMK A01 T01890092  RH  053%=      5-min Rain = 0
KFR1 240948Z 20007KT 19/09 A2982 RMK A01 T01900092  RH  053%=      5-min Rain = 0
KFR1 240949Z 19006KT 19/09 A2982 RMK A01 T01890092  RH  053%=      5-min Rain = 0
KFR1 240950Z 19006KT 19/09 A2982 RMK A01 T01890092  RH  053%=      5-min Rain = 0
KFR1 240951Z 20008KT 19/09 A2982 RMK A01 T01890092  RH  054%=      5-min Rain = 0
KFR1 240952Z 19007KT 19/09 A2981 RMK A01 T01880092  RH  053%=      5-min Rain = 0
KFR1 240953Z 20008KT 19/09 A2981 RMK A01 T01880092  RH  053%=      5-min Rain = 0
KFR1 240954Z 19008KT 19/09 A2981 RMK A01 T01880092  RH  053%=      5-min Rain = 0
KFR1 240955Z 19006KT 19/09 A2981 RMK A01 T01880092  RH  054%=      5-min Rain = 0
KFR1 240956Z 19011KT 19/09 A2981 RMK A01 T01880092  RH  054%=      5-min Rain = 0
KFR1 240957Z 19010KT 19/09 A2981 RMK A01 T01870091  RH  054%=      5-min Rain = 0
KFR1 240958Z 19010G16KT 19/09 A2981 RMK A01 T01870092  RH  054%=      5-min Rain = 0
KFR1 240959Z 20010KT 19/09 A2981 RMK A01 T01880091  RH  053%=      5-min Rain = 0
KFR1 241000Z 19011KT 19/09 A2981 RMK A01 T01880091  RH  053%=      5-min Rain = 0
KFR1 241001Z 20008KT 19/09 A2981 RMK A01 T01890092  RH  053%=      5-min Rain = 0
KFR1 241002Z 19011KT 19/09 A2981 RMK A01 T01890092  RH  053%=      5-min Rain = 0
KFR1 241003Z 20008KT 19/09 A2981 RMK A01 T01880091  RH  053%=      5-min Rain = 0
KFR1 241004Z 19010KT 19/09 A2981 RMK A01 T01880091  RH  053%=      5-min Rain = 0
KFR1 241005Z 20008KT 19/09 A2981 RMK A01 T01870091  RH  054%=      5-min Rain = 0
KFR1 241006Z 20010KT 19/09 A2981 RMK A01 T01870092  RH  054%=      5-min Rain = 0
KFR1 241007Z 20010KT 19/09 A2981 RMK A01 T01870091  RH  054%=      5-min Rain = 0
KFR1 241008Z 19009KT 19/09 A298 RMK A01 T01870091  RH  054%=      5-min Rain = 0
KFR1 241009Z 19009KT 19/09 A298 RMK A01 T01870091  RH  054%=      5-min Rain = 0
KFR1 241010Z 19009G17KT 19/09 A298 RMK A01 T01870091  RH  054%=      5-min Rain = 0
KFR1 241011Z 19012KT 19/09 A298 RMK A01 T01860091  RH  054%=      5-min Rain = 0
KFR1 241012Z 20012KT 19/09 A298 RMK A01 T01860091  RH  054%=      5-min Rain = 0
KFR1 241013Z 19014KT 19/09 A298 RMK A01 T01860091  RH  054%=      5-min Rain = 0
KFR1 241014Z 20013KT 19/09 A298 RMK A01 T01870091  RH  053%=      5-min Rain = 0
KFR1 241015Z 20012KT 19/09 A298 RMK A01 T01870091  RH  053%=      5-min Rain = 0
KFR1 241016Z 20012KT 19/09 A298 RMK A01 T01870091  RH  053%=      5-min Rain = 0
KFR1 241017Z 19015KT 19/09 A298 RMK A01 T01870090  RH  053%=      5-min Rain = 0
KFR1 241018Z 20014G19KT 19/09 A298 RMK A01 T01870091  RH  053%=      5-min Rain = 0
KFR1 241019Z 19014KT 19/09 A298 RMK A01 T01870090  RH  053%=      5-min Rain = 0
KFR1 241020Z 20015G20KT 19/09 A298 RMK A01 T01880091  RH  053%=      5-min Rain = 0
KFR1 241021Z 19015KT 19/09 A298 RMK A01 T01870090  RH  053%=      5-min Rain = 0
KFR1 241022Z 20015G21KT 19/09 A298 RMK A01 T01870090  RH  053%=      5-min Rain = 0
KFR1 241023Z 19014G21KT 19/09 A298 RMK A01 T01870090  RH  053%=      5-min Rain = 0
KFR1 241024Z 19014KT 19/09 A298 RMK A01 T01870090  RH  053%=      5-min Rain = 0
KFR1 241025Z 19012KT 19/09 A298 RMK A01 T01870090  RH  053%=      5-min Rain = 0
KFR1 241026Z 19016KT 19/09 A298 RMK A01 T01870091  RH  053%=      5-min Rain = 0
KFR1 241027Z 19012KT 19/09 A298 RMK A01 T01870091  RH  053%=      5-min Rain = 0
KFR1 241028Z 19016G21KT 19/09 A298 RMK A01 T01870090  RH  053%=      5-min Rain = 0
KFR1 241029Z 19014G19KT 19/09 A298 RMK A01 T01870090  RH  053%=      5-min Rain = 0
KFR1 241030Z 19014G20KT 19/09 A298 RMK A01 T01870090  RH  053%=      5-min Rain = 0
KFR1 241031Z 19014KT 19/09 A298 RMK A01 T01870090  RH  053%=      5-min Rain = 0
KFR1 241032Z 19014G21KT 19/09 A298 RMK A01 T01870090  RH  053%=      5-min Rain = 0
KFR1 241033Z 20013G18KT 19/09 A298 RMK A01 T01870090  RH  053%=      5-min Rain = 0
KFR1 241034Z 19017KT 19/09 A2979 RMK A01 T01870090  RH  053%=      5-min Rain = 0
KFR1 241035Z 20015KT 19/09 A2979 RMK A01 T01880090  RH  053%=      5-min Rain = 0
KFR1 241036Z 19014KT 19/09 A298 RMK A01 T01880090  RH  053%=      5-min Rain = 0
KFR1 241037Z 18013KT 19/09 A298 RMK A01 T01880090  RH  053%=      5-min Rain = 0
KFR1 241038Z 20012KT 19/09 A298 RMK A01 T01880091  RH  053%=      5-min Rain = 0
KFR1 241039Z 19013G18KT 19/09 A298 RMK A01 T01870090  RH  053%=      5-min Rain = 0
KFR1 241040Z 19017KT 19/09 A2979 RMK A01 T01870090  RH  053%=      5-min Rain = 0
KFR1 241041Z 19016KT 19/09 A2979 RMK A01 T01880090  RH  053%=      5-min Rain = 0
KFR1 241042Z 19014G21KT 19/09 A298 RMK A01 T01880090  RH  053%=      5-min Rain = 0
KFR1 241043Z 19014G19KT 19/09 A298 RMK A01 T01880090  RH  053%=      5-min Rain = 0
KFR1 241044Z 19013KT 19/09 A298 RMK A01 T01880090  RH  053%=      5-min Rain = 0
KFR1 241045Z 20012KT 19/09 A298 RMK A01 T01880091  RH  053%=      5-min Rain = 0
KFR1 241046Z 20012KT 19/09 A298 RMK A01 T01870090  RH  053%=      5-min Rain = 0
KFR1 241047Z 19012G18KT 19/09 A298 RMK A01 T01870090  RH  053%=      5-min Rain = 0
KFR1 241048Z 20014G19KT 19/09 A298 RMK A01 T01870090  RH  053%=      5-min Rain = 0
KFR1 241049Z 20010G17KT 19/09 A298 RMK A01 T01880090  RH  053%=      5-min Rain = 0
KFR1 241050Z 20011KT 19/09 A298 RMK A01 T01880090  RH  053%=      5-min Rain = 0
KFR1 241051Z 20012G18KT 19/09 A298 RMK A01 T01880090  RH  053%=      5-min Rain = 0
KFR1 241052Z 20012KT 19/09 A298 RMK A01 T01880090  RH  053%=      5-min Rain = 0
KFR1 241053Z 20013G18KT 19/09 A298 RMK A01 T01880090  RH  053%=      5-min Rain = 0
KFR1 241054Z 21013KT 19/09 A298 RMK A01 T01880090  RH  053%=      5-min Rain = 0
KFR1 241055Z 21010KT 19/09 A298 RMK A01 T01880090  RH  053%=      5-min Rain = 0
KFR1 241056Z 21010KT 19/09 A298 RMK A01 T01880090  RH  053%=      5-min Rain = 0
KFR1 241057Z 21011G17KT 19/09 A2981 RMK A01 T01880090  RH  053%=      5-min Rain = 0
KFR1 241058Z 22008KT 19/09 A2981 RMK A01 T01880090  RH  053%=      5-min Rain = 0
KFR1 241059Z 22010KT 19/09 A2981 RMK A01 T01880090  RH  053%=      5-min Rain = 0
KFR1 241100Z 22008KT 19/09 A2981 RMK A01 T01880090  RH  053%=      5-min Rain = 0
KFR1 241101Z 23007KT 19/09 A2981 RMK A01 T01870090  RH  053%=      5-min Rain = 0
KFR1 241102Z 22007KT 19/09 A2981 RMK A01 T01860090  RH  053%=      5-min Rain = 0
KFR1 241103Z 23007KT 19/09 A2981 RMK A01 T01860089  RH  053%=      5-min Rain = 0
KFR1 241104Z 23006KT 19/09 A2981 RMK A01 T01860089  RH  053%=      5-min Rain = 0
KFR1 241105Z 23006KT 19/09 A2981 RMK A01 T01860090  RH  053%=      5-min Rain = 0
KFR1 241106Z 23006KT 19/09 A2981 RMK A01 T01860090  RH  053%=      5-min Rain = 0
KFR1 241107Z 24007KT 19/09 A2981 RMK A01 T01850089  RH  054%=      5-min Rain = 0
KFR1 241108Z 23008KT 19/09 A2981 RMK A01 T01850090  RH  054%=      5-min Rain = 0
KFR1 241109Z 25006KT 19/09 A2981 RMK A01 T01850090  RH  054%=      5-min Rain = 0
KFR1 241110Z 24005KT 19/09 A2981 RMK A01 T01860093  RH  055%=      5-min Rain = 0
KFR1 241111Z 23004KT 19/10 A2981 RMK A01 T01850095  RH  056%=      5-min Rain = 0
KFR1 241112Z 23004KT 19/09 A2981 RMK A01 T01850093  RH  055%=      5-min Rain = 0
KFR1 241113Z 23005KT 18/09 A2981 RMK A01 T01840094  RH  056%=      5-min Rain = 0
KFR1 241114Z 23008KT 18/09 A2981 RMK A01 T01820093  RH  056%=      5-min Rain = 0
KFR1 241115Z 22007KT 18/09 A2981 RMK A01 T01830090  RH  055%=      5-min Rain = 0
KFR1 241116Z 21007KT 19/09 A2981 RMK A01 T01850090  RH  054%=      5-min Rain = 0
KFR1 241117Z 21008G13KT 19/09 A298 RMK A01 T01850091  RH  054%=      5-min Rain = 0
KFR1 241118Z 21010KT 18/09 A298 RMK A01 T01840090  RH  054%=      5-min Rain = 0
KFR1 241119Z 20011KT 18/09 A298 RMK A01 T01840090  RH  054%=      5-min Rain = 0
KFR1 241120Z 21010KT 19/09 A298 RMK A01 T01850090  RH  054%=      5-min Rain = 0
KFR1 241121Z 20013KT 19/09 A298 RMK A01 T01850089  RH  054%=      5-min Rain = 0
KFR1 241122Z 19012G18KT 19/09 A298 RMK A01 T01860089  RH  053%=      5-min Rain = 0
KFR1 241123Z 21009KT 19/09 A298 RMK A01 T01860089  RH  053%=      5-min Rain = 0
KFR1 241124Z 21013G18KT 19/09 A298 RMK A01 T01860090  RH  053%=      5-min Rain = 0
KFR1 241125Z 21012KT 19/09 A298 RMK A01 T01850090  RH  054%=      5-min Rain = 0
KFR1 241126Z 21012KT 19/09 A298 RMK A01 T01860089  RH  053%=      5-min Rain = 0
KFR1 241127Z 20011G16KT 19/09 A298 RMK A01 T01860090  RH  053%=      5-min Rain = 0
KFR1 241128Z 20012KT 19/09 A298 RMK A01 T01860089  RH  053%=      5-min Rain = 0
KFR1 241129Z 20012KT 19/09 A298 RMK A01 T01850089  RH  054%=      5-min Rain = 0
KFR1 241130Z 20011KT 19/09 A298 RMK A01 T01850090  RH  054%=      5-min Rain = 0
KFR1 241131Z 20014KT 18/09 A2979 RMK A01 T01840089  RH  054%=      5-min Rain = 0
KFR1 241132Z 20012KT 19/09 A298 RMK A01 T01850089  RH  054%=      5-min Rain = 0
KFR1 241133Z 20010KT 18/09 A298 RMK A01 T01840089  RH  054%=      5-min Rain = 0
KFR1 241134Z 19014KT 18/09 A298 RMK A01 T01840089  RH  054%=      5-min Rain = 0
KFR1 241135Z 20013G18KT 19/09 A298 RMK A01 T01850089  RH  054%=      5-min Rain = 0
KFR1 241136Z 20015KT 19/09 A298 RMK A01 T01850089  RH  054%=      5-min Rain = 0
KFR1 241137Z 21013KT 19/09 A298 RMK A01 T01850089  RH  053%=      5-min Rain = 0
KFR1 241138Z 21012KT 19/09 A298 RMK A01 T01850089  RH  053%=      5-min Rain = 0
KFR1 241139Z 21012KT 19/09 A298 RMK A01 T01850090  RH  054%=      5-min Rain = 0
KFR1 241140Z 22008KT 18/09 A2981 RMK A01 T01840090  RH  054%=      5-min Rain = 0
KFR1 241141Z 21010KT 18/09 A2981 RMK A01 T01830090  RH  054%=      5-min Rain = 0
KFR1 241142Z 22009KT 18/09 A2981 RMK A01 T01820090  RH  055%=      5-min Rain = 0
KFR1 241143Z 22008KT 18/09 A2981 RMK A01 T01810090  RH  055%=      5-min Rain = 0
KFR1 241144Z 22009KT 18/09 A2981 RMK A01 T01800090  RH  056%=      5-min Rain = 0
KFR1 241145Z 22010KT 18/09 A2981 RMK A01 T01790090  RH  056%=      5-min Rain = 0
KFR1 241146Z 23009KT 18/09 A2981 RMK A01 T01790090  RH  056%=      5-min Rain = 0
KFR1 241147Z 22008KT 18/09 A2981 RMK A01 T01790091  RH  056%=      5-min Rain = 0
KFR1 241148Z 23008KT 18/09 A2981 RMK A01 T01780090  RH  057%=      5-min Rain = 0
KFR1 241149Z 23009KT 18/09 A2981 RMK A01 T01760091  RH  057%=      5-min Rain = 0
KFR1 241150Z 23009KT 18/09 A2981 RMK A01 T01750091  RH  057%=      5-min Rain = 0
KFR1 241151Z 23010KT 17/09 A2981 RMK A01 T01740091  RH  058%=      5-min Rain = 0
KFR1 241152Z 23010KT 17/09 A2981 RMK A01 T01730091  RH  058%=      5-min Rain = 0
KFR1 241153Z 22011KT 17/09 A2981 RMK A01 T01720091  RH  059%=      5-min Rain = 0
KFR1 241154Z 22010KT 17/09 A2981 RMK A01 T01720091  RH  059%=      5-min Rain = 0
KFR1 241155Z 22011KT 17/09 A298 RMK A01 T01720092  RH  059%=      5-min Rain = 0
KFR1 241156Z 21012KT 17/09 A298 RMK A01 T01720092  RH  059%=      5-min Rain = 0
KFR1 241157Z 21010KT 17/09 A298 RMK A01 T01720093  RH  060%=      5-min Rain = 0
KFR1 241158Z 21012KT 17/09 A298 RMK A01 T01710093  RH  060%=      5-min Rain = 0
KFR1 241159Z 21011G16KT 17/09 A298 RMK A01 T01710093  RH  060%=      5-min Rain = 0
KFR1 241200Z 21012KT 17/09 A298 RMK A01 T01710093  RH  060%=      5-min Rain = 0
KFR1 241201Z 21012KT 17/09 A298 RMK A01 T01710094  RH  060%=      5-min Rain = 0
KFR1 241202Z 21012KT 17/09 A298 RMK A01 T01710094  RH  060%=      5-min Rain = 0
KFR1 241203Z 21012KT 17/09 A298 RMK A01 T01710094  RH  060%=      5-min Rain = 0
KFR1 241204Z 22012KT 17/09 A298 RMK A01 T01710094  RH  060%=      5-min Rain = 0
KFR1 241205Z 21014KT 17/10 A298 RMK A01 T01720095  RH  060%=      5-min Rain = 0
KFR1 241206Z 21014KT 17/10 A298 RMK A01 T01730095  RH  060%=      5-min Rain = 0
KFR1 241207Z 21015KT 17/10 A298 RMK A01 T01730095  RH  060%=      5-min Rain = 0
KFR1 241208Z 21015KT 17/10 A298 RMK A01 T01740095  RH  060%=      5-min Rain = 0
KFR1 241209Z 21015KT 17/10 A298 RMK A01 T01740096  RH  060%=      5-min Rain = 0
KFR1 241210Z 21014G19KT 17/10 A298 RMK A01 T01740096  RH  060%=      5-min Rain = 0
KFR1 241211Z 21016KT 17/10 A298 RMK A01 T01740096  RH  060%=      5-min Rain = 0
KFR1 241212Z 21015KT 18/10 A298 RMK A01 T01750096  RH  060%=      5-min Rain = 0
KFR1 241213Z 21014KT 18/10 A298 RMK A01 T01750096  RH  060%=      5-min Rain = 0
KFR1 241214Z 21015KT 18/10 A298 RMK A01 T01750097  RH  060%=      5-min Rain = 0
KFR1 241215Z 21014KT 17/10 A298 RMK A01 T01740097  RH  060%=      5-min Rain = 0
KFR1 241216Z 21014KT 18/10 A298 RMK A01 T01750097  RH  060%=      5-min Rain = 0
KFR1 241217Z 21017KT 18/10 A298 RMK A01 T01750097  RH  060%=      5-min Rain = 0
KFR1 241218Z 22015KT 18/10 A2981 RMK A01 T01750098  RH  060%=      5-min Rain = 0
KFR1 241219Z 22016G22KT 18/10 A2981 RMK A01 T01750098  RH  060%=      5-min Rain = 0
KFR1 241220Z 21014G19KT 18/10 A2981 RMK A01 T01750098  RH  060%=      5-min Rain = 0
KFR1 241221Z 22014KT 18/10 A2981 RMK A01 T01760099  RH  061%=      5-min Rain = 0
KFR1 241222Z 21014G19KT 18/10 A2981 RMK A01 T01750099  RH  061%=      5-min Rain = 0
KFR1 241223Z 21015G20KT 18/10 A2981 RMK A01 T01750099  RH  061%=      5-min Rain = 0
KFR1 241224Z 21014KT 18/10 A2981 RMK A01 T01750099  RH  061%=      5-min Rain = 0
KFR1 241225Z 20013KT 18/10 A298 RMK A01 T01750099  RH  061%=      5-min Rain = 0
KFR1 241226Z 21013G18KT 18/10 A298 RMK A01 T01760099  RH  061%=      5-min Rain = 0
KFR1 241227Z 20015KT 18/10 A298 RMK A01 T01760100  RH  061%=      5-min Rain = 0
KFR1 241228Z 21016KT 18/10 A298 RMK A01 T01760100  RH  061%=      5-min Rain = 0
KFR1 241229Z 21014KT 18/10 A298 RMK A01 T01770100  RH  061%=      5-min Rain = 0
KFR1 241230Z 20015KT 18/10 A298 RMK A01 T01770100  RH  061%=      5-min Rain = 0
KFR1 241231Z 21016KT 18/10 A298 RMK A01 T01780101  RH  061%=      5-min Rain = 0
KFR1 241232Z 21015KT 18/10 A298 RMK A01 T01780101  RH  061%=      5-min Rain = 0
KFR1 241233Z 21015KT 18/10 A298 RMK A01 T01780101  RH  061%=      5-min Rain = 0
KFR1 241234Z 21013KT 18/10 A298 RMK A01 T01790102  RH  061%=      5-min Rain = 0
KFR1 241235Z 21017KT 18/10 A298 RMK A01 T01800102  RH  060%=      5-min Rain = 0
KFR1 241236Z 21014KT 18/10 A298 RMK A01 T01820103  RH  060%=      5-min Rain = 0
KFR1 241237Z 21014G21KT 18/10 A298 RMK A01 T01830103  RH  060%=      5-min Rain = 0
KFR1 241238Z 21017KT 18/10 A298 RMK A01 T01840104  RH  060%=      5-min Rain = 0
KFR1 241239Z 21016KT 19/11 A298 RMK A01 T01860105  RH  059%=      5-min Rain = 0
KFR1 241240Z 21021G26KT 19/11 A298 RMK A01 T01880105  RH  059%=      5-min Rain = 0
KFR1 241241Z 21021KT 19/11 A298 RMK A01 T01900106  RH  058%=      5-min Rain = 0
KFR1 241242Z 21021G26KT 19/11 A298 RMK A01 T01920106  RH  058%=      5-min Rain = 0
KFR1 241243Z 21021KT 19/11 A298 RMK A01 T01920106  RH  057%=      5-min Rain = 0
KFR1 241244Z 21019G26KT 19/11 A298 RMK A01 T01930107  RH  057%=      5-min Rain = 0
KFR1 241245Z 21023KT 19/11 A298 RMK A01 T01930107  RH  057%=      5-min Rain = 0
KFR1 241246Z 21021KT 19/11 A298 RMK A01 T01940107  RH  057%=      5-min Rain = 0
KFR1 241247Z 21023KT 19/11 A298 RMK A01 T01940107  RH  057%=      5-min Rain = 0
KFR1 241248Z 21021G26KT 19/11 A298 RMK A01 T01940107  RH  057%=      5-min Rain = 0
KFR1 241249Z 21018G23KT 19/11 A298 RMK A01 T01940108  RH  057%=      5-min Rain = 0
KFR1 241250Z 21018KT 19/11 A298 RMK A01 T01940108  RH  057%=      5-min Rain = 0
KFR1 241251Z 20015KT 19/11 A298 RMK A01 T01940108  RH  057%=      5-min Rain = 0
KFR1 241252Z 21014KT 19/11 A298 RMK A01 T01940108  RH  057%=      5-min Rain = 0
KFR1 241253Z 21016G21KT 20/11 A298 RMK A01 T01950109  RH  058%=      5-min Rain = 0
KFR1 241254Z 21018G24KT 20/11 A298 RMK A01 T01950109  RH  057%=      5-min Rain = 0
KFR1 241255Z 22018G23KT 20/11 A298 RMK A01 T01950109  RH  057%=      5-min Rain = 0
KFR1 241256Z 21014KT 20/11 A298 RMK A01 T01950109  RH  058%=      5-min Rain = 0
KFR1 241257Z 21017G22KT 20/11 A298 RMK A01 T01960110  RH  058%=      5-min Rain = 0
KFR1 241258Z 22016G23KT 20/11 A298 RMK A01 T01960110  RH  058%=      5-min Rain = 0
KFR1 241259Z 22016KT 20/11 A298 RMK A01 T01960110  RH  058%=      5-min Rain = 0
KFR1 241300Z 22016KT 20/11 A2981 RMK A01 T01960110  RH  058%=      5-min Rain = 0
KFR1 241301Z 22013KT 20/11 A2981 RMK A01 T01960110  RH  058%=      5-min Rain = 0
KFR1 241302Z 22013KT 20/11 A2981 RMK A01 T01970111  RH  058%=      5-min Rain = 0
KFR1 241303Z 22014KT 20/11 A2981 RMK A01 T01970111  RH  058%=      5-min Rain = 0
KFR1 241304Z 22015KT 20/11 A2981 RMK A01 T01970111  RH  058%=      5-min Rain = 0
KFR1 241305Z 22014KT 20/11 A2981 RMK A01 T01970111  RH  058%=      5-min Rain = 0
KFR1 241306Z 22015KT 20/11 A2981 RMK A01 T01970112  RH  058%=      5-min Rain = 0
KFR1 241307Z 23011KT 20/11 A2981 RMK A01 T01970112  RH  058%=      5-min Rain = 0
KFR1 241308Z 24012KT 20/11 A2981 RMK A01 T01980112  RH  058%=      5-min Rain = 0
KFR1 241309Z 24012G17KT 20/11 A2981 RMK A01 T01980112  RH  058%=      5-min Rain = 0
KFR1 241310Z 23012KT 20/11 A2981 RMK A01 T01980112  RH  058%=      5-min Rain = 0
KFR1 241311Z 22014KT 20/11 A2981 RMK A01 T01980113  RH  058%=      5-min Rain = 0
KFR1 241312Z 23009KT 20/11 A2981 RMK A01 T01980113  RH  058%=      5-min Rain = 0
KFR1 241313Z 23011KT 20/11 A2981 RMK A01 T01980113  RH  058%=      5-min Rain = 0
KFR1 241314Z 22013KT 20/11 A2981 RMK A01 T01980113  RH  058%=      5-min Rain = 0
KFR1 241315Z 23014G19KT 20/11 A2981 RMK A01 T01990113  RH  058%=      5-min Rain = 0
KFR1 241316Z 23014KT 20/11 A2981 RMK A01 T01990114  RH  058%=      5-min Rain = 0
KFR1 241317Z 23015KT 20/11 A2981 RMK A01 T01990114  RH  058%=      5-min Rain = 0
KFR1 241318Z 22014KT 20/11 A2981 RMK A01 T01990113  RH  058%=      5-min Rain = 0
KFR1 241319Z 22017KT 20/11 A2981 RMK A01 T01990114  RH  058%=      5-min Rain = 0
KFR1 241320Z 23014KT 20/11 A2981 RMK A01 T01980114  RH  058%=      5-min Rain = 0
KFR1 241321Z 22016G21KT 20/11 A2981 RMK A01 T01990114  RH  058%=      5-min Rain = 0
KFR1 241322Z 22016KT 20/11 A2981 RMK A01 T02000114  RH  058%=      5-min Rain = 0
KFR1 241323Z 22017KT 20/11 A298 RMK A01 T02000114  RH  058%=      5-min Rain = 0
KFR1 241324Z 22017KT 20/11 A298 RMK A01 T02000114  RH  058%=      5-min Rain = 0
KFR1 241325Z 22018G23KT 20/12 A298 RMK A01 T02000115  RH  058%=      5-min Rain = 0
KFR1 241326Z 22018KT 20/12 A298 RMK A01 T02000115  RH  058%=      5-min Rain = 0
KFR1 241327Z 22021KT 20/12 A298 RMK A01 T02010115  RH  058%=      5-min Rain = 0
KFR1 241328Z 21020KT 20/12 A298 RMK A01 T02010115  RH  058%=      5-min Rain = 0
KFR1 241329Z 21018KT 20/12 A298 RMK A01 T02010116  RH  058%=      5-min Rain = 0
KFR1 241330Z 22016G23KT 20/12 A298 RMK A01 T02020116  RH  058%=      5-min Rain = 0
KFR1 241331Z 21019KT 20/12 A298 RMK A01 T02030117  RH  058%=      5-min Rain = 0
KFR1 241332Z 21020G25KT 20/12 A2979 RMK A01 T02040117  RH  057%=      5-min Rain = 0
KFR1 241333Z 21022G27KT 20/12 A2979 RMK A01 T02040117  RH  057%=      5-min Rain = 0
KFR1 241334Z 21023G28KT 21/12 A2979 RMK A01 T02050117  RH  057%=      5-min Rain = 0
KFR1 241335Z 21021G28KT 20/12 A2979 RMK A01 T02040117  RH  057%=      5-min Rain = 0
KFR1 241336Z 21025KT 20/12 A2979 RMK A01 T02040117  RH  057%=      5-min Rain = 0
KFR1 241337Z 21022G27KT 20/12 A2979 RMK A01 T02040118  RH  057%=      5-min Rain = 0
KFR1 241338Z 21021KT 21/12 A2979 RMK A01 T02050118  RH  057%=      5-min Rain = 0
KFR1 241339Z 21021KT 21/12 A2979 RMK A01 T02060119  RH  057%=      5-min Rain = 0
KFR1 241340Z 22020KT 21/12 A2979 RMK A01 T02060119  RH  057%=      5-min Rain = 0
KFR1 241341Z 22019KT 21/12 A2979 RMK A01 T02070119  RH  057%=      5-min Rain = 0
KFR1 241342Z 21018G23KT 21/12 A2979 RMK A01 T02080120  RH  057%=      5-min Rain = 0
KFR1 241343Z 21023KT 21/12 A2979 RMK A01 T02080120  RH  057%=      5-min Rain = 0
KFR1 241344Z 22018KT 21/12 A2979 RMK A01 T02080120  RH  057%=      5-min Rain = 0
KFR1 241345Z 21018G24KT 21/12 A2979 RMK A01 T02090120  RH  057%=      5-min Rain = 0
KFR1 241346Z 21020KT 21/12 A2979 RMK A01 T02090120  RH  057%=      5-min Rain = 0
KFR1 241347Z 22022KT 21/12 A2979 RMK A01 T02090120  RH  057%=      5-min Rain = 0
KFR1 241348Z 22020KT 21/12 A298 RMK A01 T02090120  RH  057%=      5-min Rain = 0
KFR1 241349Z 23019G24KT 21/12 A298 RMK A01 T02090120  RH  057%=      5-min Rain = 0
KFR1 241350Z 23019G30KT 21/12 A298 RMK A01 T02100121  RH  057%=      5-min Rain = 0
KFR1 241351Z 23027KT 21/12 A298 RMK A01 T02100121  RH  057%=      5-min Rain = 0
KFR1 241352Z 23025KT 21/12 A298 RMK A01 T02100121  RH  057%=      5-min Rain = 0
KFR1 241353Z 23022G27KT 21/12 A298 RMK A01 T02090121  RH  057%=      5-min Rain = 0
KFR1 241354Z 23019KT 21/12 A298 RMK A01 T02100122  RH  057%=      5-min Rain = 0
KFR1 241355Z 23022KT 21/12 A298 RMK A01 T02110122  RH  057%=      5-min Rain = 0
KFR1 241356Z 22020KT 21/12 A298 RMK A01 T02110122  RH  057%=      5-min Rain = 0
KFR1 241357Z 23022G29KT 21/12 A298 RMK A01 T02110122  RH  057%=      5-min Rain = 0
KFR1 241358Z 22020G26KT 21/12 A298 RMK A01 T02100122  RH  057%=      5-min Rain = 0
KFR1 241359Z 23023KT 21/12 A298 RMK A01 T02100122  RH  057%=      5-min Rain = 0
KFR1 241400Z 23025G32KT 21/12 A298 RMK A01 T02100122  RH  057%=      5-min Rain = 0
KFR1 241401Z 23021G26KT 21/12 A2979 RMK A01 T02110122  RH  057%=      5-min Rain = 0
KFR1 241402Z 22019KT 21/12 A2979 RMK A01 T02100122  RH  057%=      5-min Rain = 0
KFR1 241403Z 23019G26KT 21/12 A2979 RMK A01 T02110123  RH  057%=      5-min Rain = 0
KFR1 241404Z 23020KT 21/12 A298 RMK A01 T02110123  RH  057%=      5-min Rain = 0
KFR1 241405Z 23021KT 21/12 A2979 RMK A01 T02120123  RH  057%=      5-min Rain = 0
KFR1 241406Z 22021G27KT 21/12 A2979 RMK A01 T02120123  RH  057%=      5-min Rain = 0
KFR1 241407Z 24021G27KT 21/12 A2979 RMK A01 T02130123  RH  057%=      5-min Rain = 0
KFR1 241408Z 23021G26KT 21/12 A298 RMK A01 T02130123  RH  057%=      5-min Rain = 0
KFR1 241409Z 23020KT 21/12 A298 RMK A01 T02140124  RH  056%=      5-min Rain = 0
KFR1 241410Z 24016KT 21/12 A298 RMK A01 T02140124  RH  057%=      5-min Rain = 0
KFR1 241411Z 24019G25KT 22/12 A298 RMK A01 T02150124  RH  056%=      5-min Rain = 0
KFR1 241412Z 24015KT 22/12 A2981 RMK A01 T02150124  RH  056%=      5-min Rain = 0
KFR1 241413Z 25018G24KT 22/13 A2981 RMK A01 T02160125  RH  056%=      5-min Rain = 0
KFR1 241414Z 24019KT 22/12 A2981 RMK A01 T02150124  RH  056%=      5-min Rain = 0
KFR1 241415Z 24018KT 22/12 A2981 RMK A01 T02150124  RH  056%=      5-min Rain = 0
KFR1 241416Z 24015KT 22/13 A2982 RMK A01 T02150125  RH  056%=      5-min Rain = 0
KFR1 241417Z 25016G27KT 22/13 A2982 RMK A01 T02150127  RH  057%=      5-min Rain = 0
KFR1 241418Z 24020KT 22/13 A2982 RMK A01 T02160125  RH  056%=      5-min Rain = 0
KFR1 241419Z 25014G20KT 22/13 A2982 RMK A01 T02150126  RH  057%=      5-min Rain = 0
KFR1 241420Z 25017KT 22/13 A2982 RMK A01 T02160128  RH  057%=      5-min Rain = 0
KFR1 241421Z 24019G26KT 22/13 A2981 RMK A01 T02160126  RH  056%=      5-min Rain = 0
KFR1 241422Z 23018G24KT 22/13 A2981 RMK A01 T02170126  RH  056%=      5-min Rain = 0
KFR1 241423Z 23021G26KT 22/13 A2981 RMK A01 T02170126  RH  056%=      5-min Rain = 0
KFR1 241424Z 23021G27KT 22/13 A2981 RMK A01 T02170126  RH  056%=      5-min Rain = 0
KFR1 241425Z 23020G25KT 22/13 A2981 RMK A01 T02170125  RH  056%=      5-min Rain = 0
KFR1 241426Z 23021KT 22/13 A2981 RMK A01 T02170126  RH  056%=      5-min Rain = 0
KFR1 241427Z 23021KT 22/13 A2981 RMK A01 T02180125  RH  056%=      5-min Rain = 0
KFR1 241428Z 22018G28KT 22/13 A2981 RMK A01 T02180126  RH  056%=      5-min Rain = 0
KFR1 241429Z 23023KT 22/13 A2981 RMK A01 T02190126  RH  055%=      5-min Rain = 0
KFR1 241430Z 23022KT 22/13 A2981 RMK A01 T02200126  RH  055%=      5-min Rain = 0
KFR1 241431Z 22019G25KT 22/13 A298 RMK A01 T02190126  RH  055%=      5-min Rain = 0
KFR1 241432Z 23018KT 22/13 A2981 RMK A01 T02190127  RH  056%=      5-min Rain = 0
KFR1 241433Z 24017KT 22/13 A2981 RMK A01 T02210127  RH  055%=      5-min Rain = 0
KFR1 241434Z 24016KT 22/13 A2981 RMK A01 T02220127  RH  055%=      5-min Rain = 0
KFR1 241435Z 23011KT 22/13 A2981 RMK A01 T02220128  RH  055%=      5-min Rain = 0
KFR1 241436Z 23017KT 22/13 A2981 RMK A01 T02240128  RH  054%=      5-min Rain = 0
KFR1 241437Z 22015G21KT 23/13 A298 RMK A01 T02250128  RH  054%=      5-min Rain = 0
KFR1 241438Z 23015KT 23/13 A298 RMK A01 T02250127  RH  054%=      5-min Rain = 0
KFR1 241439Z 25016G21KT 23/13 A2981 RMK A01 T02250129  RH  054%=      5-min Rain = 0
KFR1 241440Z 25015KT 23/13 A2981 RMK A01 T02260127  RH  054%=      5-min Rain = 0
KFR1 241441Z 24012KT 23/13 A2981 RMK A01 T02260128  RH  054%=      5-min Rain = 0
KFR1 241442Z 24017KT 23/13 A2981 RMK A01 T02280128  RH  053%=      5-min Rain = 0
KFR1 241443Z 24015G20KT 23/13 A2981 RMK A01 T02280127  RH  053%=      5-min Rain = 0
KFR1 241444Z 23013KT 23/13 A2981 RMK A01 T02270128  RH  053%=      5-min Rain = 0
KFR1 241445Z 23014G19KT 23/13 A2981 RMK A01 T02280128  RH  053%=      5-min Rain = 0
KFR1 241446Z 25010KT 23/13 A2981 RMK A01 T02290130  RH  053%=      5-min Rain = 0
KFR1 241447Z 26010KT 23/13 A2981 RMK A01 T02320130  RH  053%=      5-min Rain = 0
KFR1 241448Z 27013KT 23/13 A2981 RMK A01 T02320130  RH  052%=      5-min Rain = 0
KFR1 241449Z 27012KT 23/13 A2981 RMK A01 T02330128  RH  052%=      5-min Rain = 0
KFR1 241450Z 27013KT 23/13 A2981 RMK A01 T02320129  RH  052%=      5-min Rain = 0
KFR1 241451Z 26011G16KT 23/13 A2981 RMK A01 T02310129  RH  053%=      5-min Rain = 0
KFR1 241452Z 26013KT 23/13 A2981 RMK A01 T02300130  RH  053%=      5-min Rain = 0
KFR1 241453Z 25015KT 23/13 A2981 RMK A01 T02320129  RH  052%=      5-min Rain = 0
KFR1 241454Z 24017KT 23/13 A2981 RMK A01 T02320128  RH  052%=      5-min Rain = 0
KFR1 241455Z 25014KT 23/13 A2981 RMK A01 T02320126  RH  051%=      5-min Rain = 0
KFR1 241456Z 24013KT 23/13 A2981 RMK A01 T02320128  RH  052%=      5-min Rain = 0
KFR1 241457Z 25015G21KT 23/13 A2981 RMK A01 T02330128  RH  052%=      5-min Rain = 0
KFR1 241458Z 25016G22KT 23/13 A2981 RMK A01 T02330125  RH  050%=      5-min Rain = 0
KFR1 241459Z 24017KT 23/13 A2981 RMK A01 T02330126  RH  051%=      5-min Rain = 0
KFR1 241500Z 25015KT 23/13 A2981 RMK A01 T02330125  RH  051%=      5-min Rain = 0
KFR1 241501Z 26014KT 23/13 A2981 RMK A01 T02330127  RH  051%=      5-min Rain = 0
KFR1 241502Z 25014KT 23/13 A2981 RMK A01 T02340127  RH  051%=      5-min Rain = 0
KFR1 241503Z 24017KT 23/12 A2981 RMK A01 T02330124  RH  050%=      5-min Rain = 0
KFR1 241504Z 24013G18KT 23/12 A2981 RMK A01 T02320119  RH  049%=      5-min Rain = 0
KFR1 241505Z 25014KT 23/12 A2981 RMK A01 T02310122  RH  050%=      5-min Rain = 0
KFR1 241506Z 24017KT 23/12 A2981 RMK A01 T02330123  RH  050%=      5-min Rain = 0
KFR1 241507Z 24014G19KT 23/12 A2981 RMK A01 T02340124  RH  050%=      5-min Rain = 0
KFR1 241508Z 24014KT 24/12 A2981 RMK A01 T02350123  RH  049%=      5-min Rain = 0
KFR1 241509Z 25013KT 23/12 A2981 RMK A01 T02340123  RH  049%=      5-min Rain = 0
KFR1 241510Z 25011KT 23/12 A2981 RMK A01 T02340123  RH  050%=      5-min Rain = 0
KFR1 241511Z 24009KT 23/13 A2981 RMK A01 T02340125  RH  050%=      5-min Rain = 0
KFR1 241512Z 25007KT 24/13 A2982 RMK A01 T02370127  RH  050%=      5-min Rain = 0
KFR1 241513Z 24009KT 24/13 A2982 RMK A01 T02400127  RH  049%=      5-min Rain = 0
KFR1 241514Z 25010KT 24/13 A2982 RMK A01 T02410127  RH  049%=      5-min Rain = 0
KFR1 241515Z 26008KT 24/13 A2982 RMK A01 T02410125  RH  048%=      5-min Rain = 0
KFR1 241516Z 26011G16KT 24/12 A2982 RMK A01 T02420124  RH  048%=      5-min Rain = 0
KFR1 241517Z 25012KT 24/12 A2982 RMK A01 T02420122  RH  047%=      5-min Rain = 0
KFR1 241518Z 25009KT 24/12 A2982 RMK A01 T02420123  RH  047%=      5-min Rain = 0
KFR1 241519Z 25013G19KT 24/12 A2982 RMK A01 T02430121  RH  046%=      5-min Rain = 0
KFR1 241520Z 27010KT 24/12 A2982 RMK A01 T02420123  RH  047%=      5-min Rain = 0
KFR1 241521Z 27009KT 24/13 A2982 RMK A01 T02420126  RH  048%=      5-min Rain = 0
KFR1 241522Z 26008KT 24/13 A2982 RMK A01 T02410127  RH  049%=      5-min Rain = 0
KFR1 241523Z 26010KT 24/13 A2982 RMK A01 T02400125  RH  048%=      5-min Rain = 0
KFR1 241524Z 26010KT 24/12 A2982 RMK A01 T02400124  RH  048%=      5-min Rain = 0
KFR1 241525Z 25012G17KT 24/12 A2982 RMK A01 T02400123  RH  048%=      5-min Rain = 0
KFR1 241526Z 25011KT 24/12 A2982 RMK A01 T02400119  RH  047%=      5-min Rain = 0
KFR1 241527Z 26012KT 24/12 A2982 RMK A01 T02410120  RH  046%=      5-min Rain = 0
KFR1 241528Z 26010KT 24/12 A2982 RMK A01 T02420118  RH  046%=      5-min Rain = 0
KFR1 241529Z 26008KT 24/12 A2982 RMK A01 T02430119  RH  046%=      5-min Rain = 0
KFR1 241530Z 26008KT 24/12 A2982 RMK A01 T02420121  RH  047%=      5-min Rain = 0
KFR1 241531Z 25011KT 24/12 A2982 RMK A01 T02430120  RH  046%=      5-min Rain = 0
KFR1 241532Z 25011KT 24/12 A2982 RMK A01 T02440118  RH  045%=      5-min Rain = 0
KFR1 241533Z 25013KT 24/12 A2981 RMK A01 T02440117  RH  045%=      5-min Rain = 0
KFR1 241534Z 24013KT 24/11 A2981 RMK A01 T02440114  RH  044%=      5-min Rain = 0
KFR1 241535Z 24013KT 24/11 A2981 RMK A01 T02440114  RH  044%=      5-min Rain = 0
KFR1 241536Z 25011KT 24/12 A2981 RMK A01 T02440115  RH  044%=      5-min Rain = 0
KFR1 241537Z 25009KT 24/12 A2981 RMK A01 T02440116  RH  045%=      5-min Rain = 0
KFR1 241538Z 24012KT 24/12 A2981 RMK A01 T02440118  RH  046%=      5-min Rain = 0
KFR1 241539Z 25014KT 24/12 A2981 RMK A01 T02440119  RH  046%=      5-min Rain = 0
KFR1 241540Z 24012KT 24/12 A2981 RMK A01 T02430119  RH  046%=      5-min Rain = 0
KFR1 241541Z 24013KT 24/12 A2981 RMK A01 T02430119  RH  046%=      5-min Rain = 0
KFR1 241542Z 25012KT 24/12 A2981 RMK A01 T02430120  RH  046%=      5-min Rain = 0
KFR1 241543Z 25012KT 24/12 A2981 RMK A01 T02440120  RH  046%=      5-min Rain = 0
KFR1 241544Z 24012KT 25/12 A2981 RMK A01 T02450118  RH  045%=      5-min Rain = 0
KFR1 241545Z 24011KT 25/12 A2981 RMK A01 T02450119  RH  045%=      5-min Rain = 0
KFR1 241546Z 24012KT 25/12 A2981 RMK A01 T02450121  RH  046%=      5-min Rain = 0
KFR1 241547Z 24013KT 25/12 A2981 RMK A01 T02470120  RH  045%=      5-min Rain = 0
KFR1 241548Z 24012KT 25/12 A2981 RMK A01 T02460120  RH  045%=      5-min Rain = 0
KFR1 241549Z 23009KT 25/12 A2981 RMK A01 T02450120  RH  046%=      5-min Rain = 0
KFR1 241550Z 22009KT 25/12 A2981 RMK A01 T02450121  RH  046%=      5-min Rain = 0
KFR1 241551Z 24009KT 25/12 A2981 RMK A01 T02460123  RH  046%=      5-min Rain = 0
KFR1 241552Z 26010KT 25/12 A2981 RMK A01 T02500124  RH  045%=      5-min Rain = 0
KFR1 241553Z 26007KT 25/12 A2981 RMK A01 T02510122  RH  045%=      5-min Rain = 0
KFR1 241554Z 26008KT 25/12 A2981 RMK A01 T02500122  RH  045%=      5-min Rain = 0
KFR1 241555Z 24007KT 25/12 A2981 RMK A01 T02490123  RH  045%=      5-min Rain = 0
KFR1 241556Z 26009KT 25/12 A2981 RMK A01 T02480123  RH  046%=      5-min Rain = 0
KFR1 241557Z 28008KT 25/12 A2981 RMK A01 T02480123  RH  046%=      5-min Rain = 0
KFR1 241558Z 28008KT 25/13 A2981 RMK A01 T02480126  RH  046%=      5-min Rain = 0
KFR1 241559Z 27010KT 25/13 A2981 RMK A01 T02500127  RH  046%=      5-min Rain = 0
KFR1 241600Z 26011KT 25/12 A2981 RMK A01 T02510124  RH  045%=      5-min Rain = 0
KFR1 241601Z 27010KT 25/12 A2981 RMK A01 T02510122  RH  045%=      5-min Rain = 0
KFR1 241602Z 26012KT 25/12 A2981 RMK A01 T02510120  RH  044%=      5-min Rain = 0
KFR1 241603Z 26013KT 25/12 A2981 RMK A01 T02500119  RH  044%=      5-min Rain = 0
KFR1 241604Z 26010G16KT 25/12 A2981 RMK A01 T02510117  RH  043%=      5-min Rain = 0
KFR1 241605Z 27009KT 25/12 A2981 RMK A01 T02510118  RH  043%=      5-min Rain = 0
KFR1 241606Z 26007KT 25/12 A2981 RMK A01 T02520118  RH  043%=      5-min Rain = 0
KFR1 241607Z 26008KT 25/12 A2981 RMK A01 T02530118  RH  043%=      5-min Rain = 0
KFR1 241608Z 27007KT 25/12 A2981 RMK A01 T02530121  RH  043%=      5-min Rain = 0
KFR1 241609Z 27008KT 25/12 A2981 RMK A01 T02540121  RH  044%=      5-min Rain = 0
KFR1 241610Z 27007KT 26/12 A2981 RMK A01 T02550120  RH  043%=      5-min Rain = 0
KFR1 241611Z 26010KT 26/12 A2981 RMK A01 T02560121  RH  043%=      5-min Rain = 0
KFR1 241612Z 26009KT 26/12 A2981 RMK A01 T02570119  RH  042%=      5-min Rain = 0
KFR1 241613Z 27009KT 26/12 A2981 RMK A01 T02560118  RH  042%=      5-min Rain = 0
KFR1 241614Z 28011KT 26/12 A2981 RMK A01 T02560117  RH  042%=      5-min Rain = 0
KFR1 241615Z 27008KT 26/12 A2981 RMK A01 T02550120  RH  043%=      5-min Rain = 0
KFR1 241616Z 26008KT 26/12 A2981 RMK A01 T02550121  RH  043%=      5-min Rain = 0
KFR1 241617Z 27008KT 25/12 A2981 RMK A01 T02540118  RH  043%=      5-min Rain = 0
KFR1 241618Z 26009KT 25/12 A2981 RMK A01 T02540117  RH  042%=      5-min Rain = 0
KFR1 241619Z 26011KT 26/12 A2981 RMK A01 T02550118  RH  042%=      5-min Rain = 0
KFR1 241620Z 26010KT 26/12 A2981 RMK A01 T02550115  RH  042%=      5-min Rain = 0
KFR1 241621Z 25010KT 25/11 A2981 RMK A01 T02530111  RH  041%=      5-min Rain = 0
KFR1 241622Z 26008KT 25/11 A2981 RMK A01 T02520112  RH  042%=      5-min Rain = 0
KFR1 241623Z 27006KT 26/11 A2981 RMK A01 T02550110  RH  040%=      5-min Rain = 0
KFR1 241624Z 26007KT 26/11 A2981 RMK A01 T02570114  RH  041%=      5-min Rain = 0
KFR1 241625Z 25008KT 26/11 A2981 RMK A01 T02590111  RH  040%=      5-min Rain = 0
KFR1 241626Z 26008KT 26/11 A2981 RMK A01 T02590113  RH  040%=      5-min Rain = 0
KFR1 241627Z 27008KT 26/12 A2981 RMK A01 T02590115  RH  040%=      5-min Rain = 0
KFR1 241628Z 27008KT 26/11 A2981 RMK A01 T02600114  RH  040%=      5-min Rain = 0
KFR1 241629Z 26008KT 26/11 A2981 RMK A01 T02610113  RH  039%=      5-min Rain = 0
KFR1 241630Z 26009KT 26/11 A2981 RMK A01 T02600112  RH  040%=      5-min Rain = 0
KFR1 241631Z 27008KT 26/11 A2981 RMK A01 T02580112  RH  040%=      5-min Rain = 0
KFR1 241632Z 26010KT 26/11 A2981 RMK A01 T02580111  RH  040%=      5-min Rain = 0
KFR1 241633Z 26010KT 26/11 A2981 RMK A01 T02580109  RH  039%=      5-min Rain = 0
KFR1 241634Z 26011KT 26/11 A2981 RMK A01 T02580109  RH  039%=      5-min Rain = 0
KFR1 241635Z 26010KT 26/11 A2981 RMK A01 T02560106  RH  039%=      5-min Rain = 0
KFR1 241636Z 26010KT 25/11 A2981 RMK A01 T02540108  RH  040%=      5-min Rain = 0
KFR1 241637Z 25008KT 26/11 A2981 RMK A01 T02550108  RH  040%=      5-min Rain = 0
KFR1 241638Z 27009KT 26/11 A2981 RMK A01 T02580109  RH  039%=      5-min Rain = 0
KFR1 241639Z 26008KT 26/11 A2981 RMK A01 T02600110  RH  039%=      5-min Rain = 0
KFR1 241640Z 26008KT 26/11 A2981 RMK A01 T02620108  RH  038%=      5-min Rain = 0
KFR1 241641Z 26010KT 26/11 A2981 RMK A01 T02620106  RH  038%=      5-min Rain = 0
KFR1 241642Z 27007KT 26/11 A2981 RMK A01 T02590106  RH  038%=      5-min Rain = 0
KFR1 241643Z 27006KT 26/11 A2981 RMK A01 T02570108  RH  039%=      5-min Rain = 0
KFR1 241644Z 28008KT 26/11 A2982 RMK A01 T02570106  RH  039%=      5-min Rain = 0
KFR1 241645Z 27008KT 26/11 A2982 RMK A01 T02570106  RH  039%=      5-min Rain = 0
KFR1 241646Z 26005KT 26/11 A2982 RMK A01 T02560109  RH  040%=      5-min Rain = 0
KFR1 241647Z 27007KT 26/11 A2982 RMK A01 T02610109  RH  038%=      5-min Rain = 0
KFR1 241648Z 28008KT 26/10 A2982 RMK A01 T02630102  RH  036%=      5-min Rain = 0
KFR1 241649Z 28008KT 26/10 A2982 RMK A01 T02620102  RH  036%=      5-min Rain = 0
KFR1 241650Z 28008KT 26/10 A2982 RMK A01 T02620099  RH  036%=      5-min Rain = 0
KFR1 241651Z 29007KT 26/10 A2982 RMK A01 T02600098  RH  036%=      5-min Rain = 0
KFR1 241652Z 28007KT 26/10 A2982 RMK A01 T02590096  RH  036%=      5-min Rain = 0
KFR1 241653Z 29008KT 26/10 A2981 RMK A01 T02570098  RH  037%=      5-min Rain = 0
KFR1 241654Z 27008KT 26/10 A2982 RMK A01 T02560101  RH  038%=      5-min Rain = 0
KFR1 241655Z 28006KT 26/11 A2981 RMK A01 T02560105  RH  039%=      5-min Rain = 0
KFR1 241656Z 27008KT 26/10 A2981 RMK A01 T02580104  RH  038%=      5-min Rain = 0
KFR1 241657Z 28008KT 26/10 A2982 RMK A01 T02600102  RH  037%=      5-min Rain = 0
KFR1 241658Z 28009KT 26/10 A2981 RMK A01 T02600100  RH  037%=      5-min Rain = 0
KFR1 241659Z 27008KT 26/10 A2981 RMK A01 T02610096  RH  035%=      5-min Rain = 0
KFR1 241700Z 27008KT 26/09 A2981 RMK A01 T02610094  RH  035%=      5-min Rain = 0
KFR1 241701Z 28007KT 26/10 A2981 RMK A01 T02620095  RH  035%=      5-min Rain = 0
KFR1 241702Z 28007KT 26/10 A2981 RMK A01 T02630095  RH  035%=      5-min Rain = 0
KFR1 241703Z 28008KT 26/09 A2981 RMK A01 T02640093  RH  034%=      5-min Rain = 0
KFR1 241704Z 28006KT 26/09 A2981 RMK A01 T02640090  RH  033%=      5-min Rain = 0
KFR1 241705Z 29009KT 26/09 A2981 RMK A01 T02630089  RH  033%=      5-min Rain = 0
KFR1 241706Z 27008KT 26/09 A2981 RMK A01 T02630086  RH  033%=      5-min Rain = 0
KFR1 241707Z 26005KT 26/09 A2981 RMK A01 T02610086  RH  033%=      5-min Rain = 0
KFR1 241708Z 27006KT 26/09 A2981 RMK A01 T02610089  RH  034%=      5-min Rain = 0
KFR1 241709Z 28004KT 26/09 A2981 RMK A01 T02620090  RH  034%=      5-min Rain = 0
KFR1 241710Z 28007KT 26/09 A2981 RMK A01 T02630094  RH  035%=      5-min Rain = 0
KFR1 241711Z 28006KT 26/10 A2981 RMK A01 T02620098  RH  036%=      5-min Rain = 0
KFR1 241712Z 28007KT 26/09 A2981 RMK A01 T02620094  RH  035%=      5-min Rain = 0
KFR1 241713Z 29005KT 26/10 A2981 RMK A01 T02630097  RH  035%=      5-min Rain = 0
KFR1 241714Z 28007KT 26/10 A2981 RMK A01 T02640098  RH  035%=      5-min Rain = 0
KFR1 241715Z 28005KT 27/10 A2981 RMK A01 T02650101  RH  036%=      5-min Rain = 0
KFR1 241716Z 27006KT 27/10 A2981 RMK A01 T02670097  RH  034%=      5-min Rain = 0
KFR1 241717Z 27005KT 27/09 A2981 RMK A01 T02660094  RH  034%=      5-min Rain = 0
KFR1 241718Z 26006KT 27/09 A2981 RMK A01 T02660094  RH  034%=      5-min Rain = 0
KFR1 241719Z 26008KT 27/09 A2981 RMK A01 T02690090  RH  032%=      5-min Rain = 0
KFR1 241720Z 25008KT 27/09 A2981 RMK A01 T02700091  RH  032%=      5-min Rain = 0
KFR1 241721Z 27006KT 27/09 A2981 RMK A01 T02690093  RH  033%=      5-min Rain = 0
KFR1 241722Z 28009KT 27/10 A2981 RMK A01 T02700104  RH  035%=      5-min Rain = 0
KFR1 241723Z 28008KT 27/11 A2981 RMK A01 T02680110  RH  037%=      5-min Rain = 0
KFR1 241724Z 30005KT 26/11 A2981 RMK A01 T02640113  RH  039%=      5-min Rain = 0
KFR1 241725Z 28006KT 26/12 A2981 RMK A01 T02640117  RH  040%=      5-min Rain = 0
KFR1 241726Z 28008KT 27/12 A2981 RMK A01 T02650117  RH  040%=      5-min Rain = 0
KFR1 241727Z 28005KT 27/11 A2981 RMK A01 T02650108  RH  037%=      5-min Rain = 0
KFR1 241728Z 32004KT 26/11 A2981 RMK A01 T02640113  RH  039%=      5-min Rain = 0
KFR1 241729Z 27005KT 27/11 A2981 RMK A01 T02680113  RH  038%=      5-min Rain = 0
KFR1 241730Z 28004KT 27/11 A2981 RMK A01 T02690114  RH  038%=      5-min Rain = 0
KFR1 241731Z 30007KT 27/12 A2981 RMK A01 T02690116  RH  038%=      5-min Rain = 0
KFR1 241732Z 31007KT 27/11 A2981 RMK A01 T02700114  RH  038%=      5-min Rain = 0
KFR1 241733Z 34006KT 27/11 A2981 RMK A01 T02670112  RH  038%=      5-min Rain = 0
KFR1 241734Z 33007KT 27/12 A2981 RMK A01 T02650117  RH  040%=      5-min Rain = 0
KFR1 241735Z 31006KT 27/12 A2981 RMK A01 T02670120  RH  040%=      5-min Rain = 0
KFR1 241736Z 29005KT 27/12 A2981 RMK A01 T02690121  RH  040%=      5-min Rain = 0
KFR1 241737Z 30006KT 27/12 A2981 RMK A01 T02690122  RH  040%=      5-min Rain = 0
KFR1 241738Z 28005KT 27/12 A2981 RMK A01 T02690121  RH  040%=      5-min Rain = 0
KFR1 241739Z 28005KT 27/12 A2981 RMK A01 T02690124  RH  041%=      5-min Rain = 0
KFR1 241740Z 30005KT 27/12 A2981 RMK A01 T02710120  RH  039%=      5-min Rain = 0
KFR1 241741Z 29005KT 27/12 A2981 RMK A01 T02690117  RH  039%=      5-min Rain = 0
KFR1 241742Z 26005KT 27/12 A2981 RMK A01 T02670117  RH  039%=      5-min Rain = 0
KFR1 241743Z 28003KT 26/12 A2981 RMK A01 T02640119  RH  040%=      5-min Rain = 0
KFR1 241744Z 27005KT 27/12 A2981 RMK A01 T02660119  RH  040%=      5-min Rain = 0
KFR1 241745Z 28003KT 27/12 A2981 RMK A01 T02670118  RH  040%=      5-min Rain = 0
KFR1 241746Z 29003KT 27/12 A2981 RMK A01 T02670120  RH  040%=      5-min Rain = 0
KFR1 241747Z 29004KT 27/12 A2981 RMK A01 T02680118  RH  039%=      5-min Rain = 0
KFR1 241748Z 29003KT 27/12 A2981 RMK A01 T02670120  RH  040%=      5-min Rain = 0
KFR1 241749Z 29004KT 27/12 A2981 RMK A01 T02670121  RH  040%=      5-min Rain = 0
KFR1 241750Z 32004KT 27/12 A2981 RMK A01 T02680120  RH  040%=      5-min Rain = 0
KFR1 241751Z 32005KT 27/12 A2981 RMK A01 T02680121  RH  040%=      5-min Rain = 0
KFR1 241752Z 32007KT 27/12 A2981 RMK A01 T02670120  RH  040%=      5-min Rain = 0
KFR1 241753Z 34004KT 27/12 A2981 RMK A01 T02660122  RH  041%=      5-min Rain = 0
KFR1 241754Z 34006KT 27/13 A2981 RMK A01 T02670126  RH  041%=      5-min Rain = 0
KFR1 241755Z 00006KT 27/13 A2981 RMK A01 T02720128  RH  041%=      5-min Rain = 0
KFR1 241756Z 01006KT 27/12 A2981 RMK A01 T02740124  RH  039%=      5-min Rain = 0
KFR1 241757Z 33005KT 27/13 A2981 RMK A01 T02730128  RH  041%=      5-min Rain = 0
KFR1 241758Z 32006KT 27/13 A2981 RMK A01 T02730125  RH  040%=      5-min Rain = 0
KFR1 241759Z 34005KT 27/12 A2981 RMK A01 T02700124  RH  041%=      5-min Rain = 0
KFR1 241800Z 34004KT 27/13 A2981 RMK A01 T02700127  RH  041%=      5-min Rain = 0
KFR1 241801Z 34006KT 27/13 A2981 RMK A01 T02730127  RH  040%=      5-min Rain = 0
KFR1 241802Z 34004KT 27/13 A2981 RMK A01 T02730125  RH  040%=      5-min Rain = 0
KFR1 241803Z 35005KT 27/12 A2981 RMK A01 T02730124  RH  040%=      5-min Rain = 0
KFR1 241804Z 02004KT 27/12 A2981 RMK A01 T02710123  RH  040%=      5-min Rain = 0
KFR1 241805Z 36003KT 27/12 A2981 RMK A01 T02680122  RH  040%=      5-min Rain = 0
KFR1 241806Z 33004KT 27/12 A2981 RMK A01 T02680122  RH  040%=      5-min Rain = 0
KFR1 241807Z 33005KT 27/12 A2981 RMK A01 T02670122  RH  040%=      5-min Rain = 0
KFR1 241808Z 31004KT 27/12 A2981 RMK A01 T02660123  RH  041%=      5-min Rain = 0
KFR1 241809Z 31004KT 27/12 A2981 RMK A01 T02670123  RH  041%=      5-min Rain = 0
KFR1 241810Z 33005KT 27/13 A2981 RMK A01 T02700125  RH  041%=      5-min Rain = 0
KFR1 241811Z 32002KT 27/12 A2981 RMK A01 T02730121  RH  039%=      5-min Rain = 0
KFR1 241812Z 30005KT 27/12 A2981 RMK A01 T02720123  RH  040%=      5-min Rain = 0
KFR1 241813Z 32006KT 27/12 A2981 RMK A01 T02720123  RH  040%=      5-min Rain = 0
KFR1 241814Z 34005KT 27/12 A2981 RMK A01 T02730123  RH  039%=      5-min Rain = 0
KFR1 241815Z 31005KT 27/12 A2981 RMK A01 T02740121  RH  039%=      5-min Rain = 0
KFR1 241816Z 30003KT 27/13 A2981 RMK A01 T02740125  RH  040%=      5-min Rain = 0
KFR1 241817Z 28003KT 28/12 A2981 RMK A01 T02760120  RH  038%=      5-min Rain = 0
KFR1 241818Z 31004KT 28/12 A2981 RMK A01 T02780122  RH  038%=      5-min Rain = 0
KFR1 241819Z 32006KT 28/12 A2981 RMK A01 T02800120  RH  037%=      5-min Rain = 0
KFR1 241820Z 28005KT 28/12 A2981 RMK A01 T02790116  RH  037%=      5-min Rain = 0
KFR1 241821Z 29005KT 28/12 A2981 RMK A01 T02770118  RH  037%=      5-min Rain = 0
KFR1 241822Z 27005KT 28/12 A2981 RMK A01 T02750115  RH  037%=      5-min Rain = 0
KFR1 241823Z 28005KT 27/12 A2981 RMK A01 T02730118  RH  038%=      5-min Rain = 0
KFR1 241824Z 30004KT 27/12 A2981 RMK A01 T02730116  RH  038%=      5-min Rain = 0
KFR1 241825Z 29004KT 27/12 A2981 RMK A01 T02730115  RH  038%=      5-min Rain = 0
KFR1 241826Z 28005KT 27/12 A2981 RMK A01 T02730116  RH  037%=      5-min Rain = 0
KFR1 241827Z 28005KT 27/12 A2981 RMK A01 T02740116  RH  038%=      5-min Rain = 0
KFR1 241828Z 30004KT 28/12 A2981 RMK A01 T02770119  RH  037%=      5-min Rain = 0
KFR1 241829Z 28005KT 28/12 A2981 RMK A01 T02810118  RH  036%=      5-min Rain = 0
KFR1 241830Z 29004KT 28/12 A2981 RMK A01 T02830119  RH  036%=      5-min Rain = 0
KFR1 241831Z 29005KT 29/12 A2981 RMK A01 T02860118  RH  035%=      5-min Rain = 0
KFR1 241832Z 28007KT 29/12 A2981 RMK A01 T02850118  RH  035%=      5-min Rain = 0
KFR1 241833Z 28007KT 28/12 A2981 RMK A01 T02810118  RH  036%=      5-min Rain = 0
KFR1 241834Z 30005KT 28/12 A2981 RMK A01 T02770116  RH  037%=      5-min Rain = 0
KFR1 241835Z 28005KT 28/12 A2981 RMK A01 T02750115  RH  037%=      5-min Rain = 0
KFR1 241836Z 30007KT 27/11 A298 RMK A01 T02740113  RH  037%=      5-min Rain = 0
KFR1 241837Z 32004KT 27/11 A298 RMK A01 T02730109  RH  036%=      5-min Rain = 0
KFR1 241838Z 30005KT 27/11 A298 RMK A01 T02710112  RH  037%=      5-min Rain = 0
KFR1 241839Z 28004KT 27/12 A298 RMK A01 T02740115  RH  037%=      5-min Rain = 0
KFR1 241840Z 28005KT 28/11 A298 RMK A01 T02760111  RH  036%=      5-min Rain = 0
KFR1 241841Z 28004KT 28/11 A298 RMK A01 T02750109  RH  035%=      5-min Rain = 0
KFR1 241842Z 31003KT 27/11 A298 RMK A01 T02740110  RH  036%=      5-min Rain = 0
KFR1 241843Z 29004KT 27/11 A298 RMK A01 T02740109  RH  036%=      5-min Rain = 0
KFR1 241844Z 29005KT 28/11 A298 RMK A01 T02750109  RH  036%=      5-min Rain = 0
KFR1 241845Z 29005KT 28/11 A298 RMK A01 T02750110  RH  036%=      5-min Rain = 0
KFR1 241846Z 30005KT 28/11 A298 RMK A01 T02760108  RH  035%=      5-min Rain = 0
KFR1 241847Z 29005KT 28/11 A298 RMK A01 T02770112  RH  036%=      5-min Rain = 0
KFR1 241848Z 28006KT 28/12 A298 RMK A01 T02800115  RH  036%=      5-min Rain = 0
KFR1 241849Z 30006KT 28/11 A298 RMK A01 T02820112  RH  035%=      5-min Rain = 0
KFR1 241850Z 32005KT 28/11 A298 RMK A01 T02820111  RH  035%=      5-min Rain = 0
KFR1 241851Z 32004KT 28/11 A298 RMK A01 T02800110  RH  035%=      5-min Rain = 0
KFR1 241852Z 30004KT 28/11 A298 RMK A01 T02790113  RH  036%=      5-min Rain = 0
KFR1 241853Z 28004KT 28/12 A298 RMK A01 T02830115  RH  035%=      5-min Rain = 0
KFR1 241854Z 28005KT 29/11 A298 RMK A01 T02860113  RH  034%=      5-min Rain = 0
KFR1 241855Z 29005KT 28/12 A298 RMK A01 T02840116  RH  035%=      5-min Rain = 0
KFR1 241856Z 29005KT 28/12 A298 RMK A01 T02840116  RH  035%=      5-min Rain = 0
KFR1 241857Z 28007KT 29/11 A298 RMK A01 T02850113  RH  034%=      5-min Rain = 0
KFR1 241858Z 28007KT 28/11 A298 RMK A01 T02840113  RH  034%=      5-min Rain = 0
KFR1 241859Z 26007KT 29/11 A298 RMK A01 T02850112  RH  034%=      5-min Rain = 0
KFR1 241900Z 25005KT 29/11 A298 RMK A01 T02870112  RH  034%=      5-min Rain = 0
KFR1 241901Z 25007KT 29/11 A298 RMK A01 T02890106  RH  032%=      5-min Rain = 0
KFR1 241902Z 26007KT 29/11 A298 RMK A01 T02890106  RH  032%=      5-min Rain = 0
KFR1 241903Z 26006KT 29/10 A298 RMK A01 T02870103  RH  032%=      5-min Rain = 0
KFR1 241904Z 28006KT 29/10 A298 RMK A01 T02860103  RH  032%=      5-min Rain = 0
KFR1 241905Z 27006KT 29/10 A298 RMK A01 T02870103  RH  032%=      5-min Rain = 0
KFR1 241906Z 28006KT 29/10 A298 RMK A01 T02880100  RH  031%=      5-min Rain = 0
KFR1 241907Z 27006KT 29/10 A298 RMK A01 T02870100  RH  031%=      5-min Rain = 0
KFR1 241908Z 28005KT 29/10 A298 RMK A01 T02850099  RH  031%=      5-min Rain = 0
KFR1 241909Z 29003KT 29/10 A298 RMK A01 T02850100  RH  032%=      5-min Rain = 0
KFR1 241910Z 30003KT 29/10 A298 RMK A01 T02860102  RH  032%=      5-min Rain = 0
KFR1 241911Z 28005KT 29/10 A298 RMK A01 T02870100  RH  031%=      5-min Rain = 0
KFR1 241912Z 30004KT 29/10 A298 RMK A01 T02860100  RH  031%=      5-min Rain = 0
KFR1 241913Z 28001KT 29/10 A298 RMK A01 T02860102  RH  032%=      5-min Rain = 0
KFR1 241914Z 31004KT 29/10 A298 RMK A01 T02870103  RH  032%=      5-min Rain = 0
KFR1 241915Z 26004KT 29/10 A298 RMK A01 T02870100  RH  031%=      5-min Rain = 0
KFR1 241916Z 27003KT 29/10 A298 RMK A01 T02850098  RH  031%=      5-min Rain = 0
KFR1 241917Z 24001KT 28/10 A298 RMK A01 T02840098  RH  031%=      5-min Rain = 0
KFR1 241918Z 24001KT 29/10 A298 RMK A01 T02850096  RH  031%=      5-min Rain = 0
KFR1 241919Z 29002KT 29/10 A298 RMK A01 T02860098  RH  031%=      5-min Rain = 0
KFR1 241920Z 26003KT 29/10 A298 RMK A01 T02880095  RH  030%=      5-min Rain = 0
KFR1 241921Z 27004KT 29/10 A298 RMK A01 T02890097  RH  030%=      5-min Rain = 0
KFR1 241922Z 28006KT 29/10 A2979 RMK A01 T02880098  RH  030%=      5-min Rain = 0
KFR1 241923Z 30005KT 29/10 A298 RMK A01 T02880096  RH  030%=      5-min Rain = 0
KFR1 241924Z 31005KT 29/10 A2979 RMK A01 T02860097  RH  031%=      5-min Rain = 0
KFR1 241925Z 31004KT 29/10 A2979 RMK A01 T02850095  RH  030%=      5-min Rain = 0
KFR1 241926Z 32002KT 28/09 A2979 RMK A01 T02830092  RH  030%=      5-min Rain = 0
KFR1 241927Z 33002KT 28/09 A2979 RMK A01 T02820093  RH  031%=      5-min Rain = 0
KFR1 241928Z 35001KT 28/09 A2979 RMK A01 T02820093  RH  031%=      5-min Rain = 0
KFR1 241929Z 32004KT 28/09 A2979 RMK A01 T02820091  RH  030%=      5-min Rain = 0
KFR1 241930Z 01002KT 28/09 A2979 RMK A01 T02820092  RH  031%=      5-min Rain = 0
KFR1 241931Z 29003KT 28/09 A2979 RMK A01 T02810092  RH  030%=      5-min Rain = 0
KFR1 241932Z 29004KT 28/09 A2979 RMK A01 T02820094  RH  031%=      5-min Rain = 0
KFR1 241933Z 28004KT 29/10 A2979 RMK A01 T02870096  RH  030%=      5-min Rain = 0
KFR1 241934Z 29005KT 29/09 A2979 RMK A01 T02890089  RH  028%=      5-min Rain = 0
KFR1 241935Z 32005KT 29/09 A2979 RMK A01 T02890091  RH  029%=      5-min Rain = 0
KFR1 241936Z 33005KT 29/09 A2979 RMK A01 T02870090  RH  029%=      5-min Rain = 0
KFR1 241937Z 30006KT 29/09 A2979 RMK A01 T02880093  RH  030%=      5-min Rain = 0
KFR1 241938Z 28004KT 29/09 A2979 RMK A01 T02890090  RH  029%=      5-min Rain = 0
KFR1 241939Z 27004KT 29/09 A2979 RMK A01 T02880092  RH  029%=      5-min Rain = 0
KFR1 241940Z 27002KT 29/09 A2979 RMK A01 T02900093  RH  029%=      5-min Rain = 0
KFR1 241941Z 28005KT 29/09 A2979 RMK A01 T02910091  RH  029%=      5-min Rain = 0
KFR1 241942Z 27005KT 29/10 A2979 RMK A01 T02930097  RH  030%=      5-min Rain = 0
KFR1 241943Z 26005KT 30/10 A2979 RMK A01 T02990099  RH  029%=      5-min Rain = 0
KFR1 241944Z 24007KT 30/09 A2978 RMK A01 T03030093  RH  027%=      5-min Rain = 0
KFR1 241945Z 28006KT 30/09 A2979 RMK A01 T03020094  RH  027%=      5-min Rain = 0
KFR1 241946Z 30006KT 30/09 A2978 RMK A01 T03000094  RH  028%=      5-min Rain = 0
KFR1 241947Z 28006KT 30/10 A2978 RMK A01 T02980095  RH  028%=      5-min Rain = 0
KFR1 241948Z 28007KT 30/09 A2978 RMK A01 T02990093  RH  028%=      5-min Rain = 0
KFR1 241949Z 27007KT 30/09 A2978 RMK A01 T03000094  RH  028%=      5-min Rain = 0
KFR1 241950Z 28008KT 30/09 A2978 RMK A01 T03010094  RH  028%=      5-min Rain = 0
KFR1 241951Z 27007KT 30/09 A2978 RMK A01 T03000091  RH  027%=      5-min Rain = 0
KFR1 241952Z 29007KT 30/09 A2978 RMK A01 T02990092  RH  028%=      5-min Rain = 0
KFR1 241953Z 28007KT 30/09 A2978 RMK A01 T02980091  RH  028%=      5-min Rain = 0
KFR1 241954Z 29007KT 30/09 A2978 RMK A01 T02970091  RH  028%=      5-min Rain = 0
KFR1 241955Z 29004KT 30/09 A2978 RMK A01 T02960091  RH  028%=      5-min Rain = 0
KFR1 241956Z 32003KT 30/09 A2978 RMK A01 T02960092  RH  028%=      5-min Rain = 0
KFR1 241957Z 31002KT 30/09 A2978 RMK A01 T02970094  RH  028%=      5-min Rain = 0
KFR1 241958Z 25002KT 30/10 A2978 RMK A01 T03010095  RH  028%=      5-min Rain = 0
KFR1 241959Z 27004KT 30/09 A2978 RMK A01 T03030089  RH  027%=      5-min Rain = 0
KFR1 242000Z 27004KT 30/09 A2978 RMK A01 T03010091  RH  027%=      5-min Rain = 0
KFR1 242001Z 26002KT 30/09 A2978 RMK A01 T02990086  RH  027%=      5-min Rain = 0
KFR1 242002Z 24001KT 30/09 A2978 RMK A01 T02960086  RH  027%=      5-min Rain = 0
KFR1 242003Z 30003KT 29/09 A2978 RMK A01 T02940088  RH  028%=      5-min Rain = 0
KFR1 242004Z 30001KT 29/09 A2978 RMK A01 T02930088  RH  028%=      5-min Rain = 0
KFR1 242005Z 24003KT 30/09 A2978 RMK A01 T02950089  RH  028%=      5-min Rain = 0
KFR1 242006Z 28002KT 30/09 A2978 RMK A01 T02960089  RH  028%=      5-min Rain = 0
KFR1 242007Z 30004KT 30/09 A2978 RMK A01 T02980092  RH  028%=      5-min Rain = 0
KFR1 242008Z 35003KT 30/09 A2978 RMK A01 T02980090  RH  027%=      5-min Rain = 0
KFR1 242009Z 35005KT 30/09 A2978 RMK A01 T02970089  RH  027%=      5-min Rain = 0
KFR1 242010Z 33007KT 30/09 A2978 RMK A01 T02970094  RH  028%=      5-min Rain = 0
KFR1 242011Z 33006KT 30/09 A2978 RMK A01 T02980090  RH  027%=      5-min Rain = 0
KFR1 242012Z 33006KT 30/09 A2978 RMK A01 T02970090  RH  027%=      5-min Rain = 0
KFR1 242013Z 34005KT 30/09 A2978 RMK A01 T02950088  RH  027%=      5-min Rain = 0
KFR1 242014Z 01005KT 29/09 A2978 RMK A01 T02930092  RH  029%=      5-min Rain = 0
KFR1 242015Z 01003KT 30/09 A2978 RMK A01 T02950093  RH  028%=      5-min Rain = 0
KFR1 242016Z 02004KT 30/09 A2978 RMK A01 T02970094  RH  028%=      5-min Rain = 0
KFR1 242017Z 33006KT 30/09 A2978 RMK A01 T02990093  RH  028%=      5-min Rain = 0
KFR1 242018Z 33006KT 30/09 A2978 RMK A01 T02990088  RH  027%=      5-min Rain = 0
KFR1 242019Z 33005KT 30/09 A2977 RMK A01 T02970088  RH  027%=      5-min Rain = 0
KFR1 242020Z 33004KT 30/10 A2977 RMK A01 T02980095  RH  028%=      5-min Rain = 0
KFR1 242021Z 34004KT 30/09 A2977 RMK A01 T03010089  RH  027%=      5-min Rain = 0
KFR1 242022Z 32005KT 30/09 A2977 RMK A01 T03010091  RH  027%=      5-min Rain = 0
KFR1 242023Z 32006KT 30/09 A2977 RMK A01 T03020088  RH  026%=      5-min Rain = 0
KFR1 242024Z 33005KT 30/09 A2977 RMK A01 T03010086  RH  026%=      5-min Rain = 0
KFR1 242025Z 31004KT 30/09 A2977 RMK A01 T03000091  RH  027%=      5-min Rain = 0
KFR1 242026Z 30004KT 30/09 A2977 RMK A01 T03040093  RH  027%=      5-min Rain = 0
KFR1 242027Z 29004KT 31/09 A2977 RMK A01 T03070093  RH  026%=      5-min Rain = 0
KFR1 242028Z 29006KT 31/09 A2977 RMK A01 T03110091  RH  026%=      5-min Rain = 0
KFR1 242029Z 29007KT 31/09 A2977 RMK A01 T03100088  RH  025%=      5-min Rain = 0
KFR1 242030Z 28008KT 31/09 A2977 RMK A01 T03090087  RH  025%=      5-min Rain = 0
KFR1 242031Z 31007KT 31/09 A2977 RMK A01 T03080090  RH  026%=      5-min Rain = 0
KFR1 242032Z 31008KT 31/09 A2977 RMK A01 T03080090  RH  026%=      5-min Rain = 0
KFR1 242033Z 29008KT 31/09 A2977 RMK A01 T03080088  RH  025%=      5-min Rain = 0
KFR1 242034Z 29008KT 31/08 A2977 RMK A01 T03070084  RH  025%=      5-min Rain = 0
KFR1 242035Z 28008KT 31/08 A2977 RMK A01 T03070084  RH  025%=      5-min Rain = 0
KFR1 242036Z 29007KT 31/08 A2977 RMK A01 T03070082  RH  025%=      5-min Rain = 0
KFR1 242037Z 29006KT 31/08 A2977 RMK A01 T03070083  RH  025%=      5-min Rain = 0
KFR1 242038Z 28007KT 31/08 A2977 RMK A01 T03080081  RH  024%=      5-min Rain = 0
KFR1 242039Z 29006KT 31/08 A2977 RMK A01 T03060080  RH  024%=      5-min Rain = 0
KFR1 242040Z 29004KT 30/09 A2977 RMK A01 T03040086  RH  026%=      5-min Rain = 0
KFR1 242041Z 28007KT 31/08 A2977 RMK A01 T03050083  RH  025%=      5-min Rain = 0
KFR1 242042Z 27006KT 31/08 A2977 RMK A01 T03050082  RH  025%=      5-min Rain = 0
KFR1 242043Z 28006KT 31/08 A2977 RMK A01 T03050079  RH  024%=      5-min Rain = 0
KFR1 242044Z 29006KT 31/08 A2977 RMK A01 T03050079  RH  024%=      5-min Rain = 0
KFR1 242045Z 29007KT 31/08 A2976 RMK A01 T03050079  RH  024%=      5-min Rain = 0
KFR1 242046Z 29006KT 31/08 A2976 RMK A01 T03050079  RH  024%=      5-min Rain = 0
KFR1 242047Z 27006KT 30/08 A2976 RMK A01 T03040080  RH  025%=      5-min Rain = 0
KFR1 242048Z 29007KT 30/08 A2976 RMK A01 T03040079  RH  024%=      5-min Rain = 0
KFR1 242049Z 28005KT 31/08 A2976 RMK A01 T03050082  RH  025%=      5-min Rain = 0
KFR1 242050Z 31005KT 31/08 A2976 RMK A01 T03060083  RH  025%=      5-min Rain = 0
KFR1 242051Z 31005KT 31/08 A2976 RMK A01 T03070084  RH  025%=      5-min Rain = 0
KFR1 242052Z 29005KT 31/09 A2976 RMK A01 T03090085  RH  025%=      5-min Rain = 0
KFR1 242053Z 29005KT 31/08 A2976 RMK A01 T03110080  RH  024%=      5-min Rain = 0
KFR1 242054Z 29004KT 31/08 A2976 RMK A01 T03090081  RH  024%=      5-min Rain = 0
KFR1 242055Z 27003KT 31/08 A2976 RMK A01 T03080083  RH  025%=      5-min Rain = 0
KFR1 242056Z 28004KT 31/08 A2976 RMK A01 T03090084  RH  025%=      5-min Rain = 0
KFR1 242057Z 30005KT 31/09 A2976 RMK A01 T03110087  RH  025%=      5-min Rain = 0
KFR1 242058Z 29007KT 31/08 A2976 RMK A01 T03110082  RH  024%=      5-min Rain = 0
KFR1 242059Z 30006KT 31/08 A2976 RMK A01 T03110083  RH  024%=      5-min Rain = 0
KFR1 242100Z 29007KT 31/08 A2975 RMK A01 T03100081  RH  024%=      5-min Rain = 0
KFR1 242101Z 29005KT 31/08 A2975 RMK A01 T03100084  RH  025%=      5-min Rain = 0
KFR1 242102Z 29005KT 31/09 A2975 RMK A01 T03110087  RH  025%=      5-min Rain = 0
KFR1 242103Z 30005KT 32/09 A2975 RMK A01 T03150088  RH  024%=      5-min Rain = 0
KFR1 242104Z 31006KT 32/08 A2975 RMK A01 T03160084  RH  024%=      5-min Rain = 0
KFR1 242105Z 31007KT 31/08 A2975 RMK A01 T03110081  RH  024%=      5-min Rain = 0
KFR1 242106Z 31007KT 31/08 A2975 RMK A01 T03070082  RH  025%=      5-min Rain = 0
KFR1 242107Z 28005KT 31/08 A2975 RMK A01 T03050082  RH  025%=      5-min Rain = 0
KFR1 242108Z 28006KT 31/08 A2975 RMK A01 T03050082  RH  025%=      5-min Rain = 0
KFR1 242109Z 29007KT 31/08 A2975 RMK A01 T03070081  RH  025%=      5-min Rain = 0
KFR1 242110Z 30006KT 31/08 A2975 RMK A01 T03070080  RH  024%=      5-min Rain = 0
KFR1 242111Z 28005KT 31/08 A2975 RMK A01 T03070082  RH  025%=      5-min Rain = 0
KFR1 242112Z 29007KT 31/08 A2975 RMK A01 T03090080  RH  024%=      5-min Rain = 0
KFR1 242113Z 28006KT 31/08 A2975 RMK A01 T03090079  RH  024%=      5-min Rain = 0
KFR1 242114Z 28006KT 31/08 A2975 RMK A01 T03080080  RH  024%=      5-min Rain = 0
KFR1 242115Z 29007KT 31/08 A2975 RMK A01 T03100081  RH  024%=      5-min Rain = 0
KFR1 242116Z 29007KT 31/08 A2975 RMK A01 T03100083  RH  024%=      5-min Rain = 0
KFR1 242117Z 28009KT 31/08 A2975 RMK A01 T03110080  RH  024%=      5-min Rain = 0
KFR1 242118Z 29007KT 31/08 A2975 RMK A01 T03100078  RH  024%=      5-min Rain = 0
KFR1 242119Z 28008KT 31/08 A2975 RMK A01 T03090079  RH  024%=      5-min Rain = 0
KFR1 242120Z 29006KT 31/08 A2975 RMK A01 T03090078  RH  024%=      5-min Rain = 0
KFR1 242121Z 28006KT 31/08 A2974 RMK A01 T03100077  RH  023%=      5-min Rain = 0
KFR1 242122Z 29005G10KT 31/08 A2974 RMK A01 T03110083  RH  024%=      5-min Rain = 0
KFR1 242123Z 31006KT 32/08 A2974 RMK A01 T03150077  RH  023%=      5-min Rain = 0
KFR1 242124Z 29006KT 32/07 A2974 RMK A01 T03150073  RH  022%=      5-min Rain = 0
KFR1 242125Z 30005KT 31/07 A2974 RMK A01 T03130072  RH  022%=      5-min Rain = 0
KFR1 242126Z 27003KT 31/07 A2974 RMK A01 T03110073  RH  023%=      5-min Rain = 0
KFR1 242127Z 31004KT 31/08 A2974 RMK A01 T03120075  RH  023%=      5-min Rain = 0
KFR1 242128Z 31006KT 32/07 A2974 RMK A01 T03150071  RH  022%=      5-min Rain = 0
KFR1 242129Z 31006KT 31/07 A2974 RMK A01 T03140072  RH  022%=      5-min Rain = 0
KFR1 242130Z 33007KT 31/08 A2974 RMK A01 T03120075  RH  023%=      5-min Rain = 0
KFR1 242131Z 33006KT 31/08 A2974 RMK A01 T03110077  RH  023%=      5-min Rain = 0
KFR1 242132Z 33007KT 31/08 A2974 RMK A01 T03090079  RH  024%=      5-min Rain = 0
KFR1 242133Z 33005KT 31/08 A2974 RMK A01 T03080076  RH  023%=      5-min Rain = 0
KFR1 242134Z 34006KT 31/08 A2973 RMK A01 T03060075  RH  024%=      5-min Rain = 0
KFR1 242135Z 33005KT 31/08 A2973 RMK A01 T03080084  RH  025%=      5-min Rain = 0
KFR1 242136Z 33004KT 31/08 A2973 RMK A01 T03130083  RH  024%=      5-min Rain = 0
KFR1 242137Z 32005KT 32/07 A2973 RMK A01 T03150071  RH  022%=      5-min Rain = 0
KFR1 242138Z 26004KT 32/06 A2973 RMK A01 T03150061  RH  020%=      5-min Rain = 0
KFR1 242139Z 28005KT 32/06 A2973 RMK A01 T03160062  RH  020%=      5-min Rain = 0
KFR1 242140Z 28004KT 32/06 A2973 RMK A01 T03180063  RH  020%=      5-min Rain = 0
KFR1 242141Z 30005KT 32/07 A2973 RMK A01 T03180066  RH  021%=      5-min Rain = 0
KFR1 242142Z 29003KT 32/06 A2973 RMK A01 T03180063  RH  020%=      5-min Rain = 0
KFR1 242143Z 27005KT 32/07 A2973 RMK A01 T03180068  RH  021%=      5-min Rain = 0
KFR1 242144Z 28007KT 32/07 A2973 RMK A01 T03190073  RH  022%=      5-min Rain = 0
KFR1 242145Z 27007G12KT 32/08 A2973 RMK A01 T03190075  RH  022%=      5-min Rain = 0
KFR1 242146Z 30008KT 32/07 A2973 RMK A01 T03180066  RH  021%=      5-min Rain = 0
KFR1 242147Z 28007KT 32/06 A2973 RMK A01 T03170056  RH  019%=      5-min Rain = 0
KFR1 242148Z 28009KT 32/06 A2973 RMK A01 T03150060  RH  020%=      5-min Rain = 0
KFR1 242149Z 28009KT 32/07 A2973 RMK A01 T03160068  RH  021%=      5-min Rain = 0
KFR1 242150Z 28008KT 32/06 A2973 RMK A01 T03150058  RH  020%=      5-min Rain = 0
KFR1 242151Z 28006KT 31/05 A2973 RMK A01 T03140051  RH  019%=      5-min Rain = 0
KFR1 242152Z 28006KT 31/06 A2972 RMK A01 T03110056  RH  020%=      5-min Rain = 0
KFR1 242153Z 27005G10KT 31/06 A2972 RMK A01 T03120055  RH  020%=      5-min Rain = 0
KFR1 242154Z 26002KT 31/05 A2972 RMK A01 T03130052  RH  019%=      5-min Rain = 0
KFR1 242155Z 28003KT 31/05 A2972 RMK A01 T03130054  RH  020%=      5-min Rain = 0
KFR1 242156Z 26005KT 31/06 A2972 RMK A01 T03130058  RH  020%=      5-min Rain = 0
KFR1 242157Z 28005KT 31/06 A2972 RMK A01 T03130061  RH  021%=      5-min Rain = 0
KFR1 242158Z 27004KT 31/07 A2972 RMK A01 T03130070  RH  022%=      5-min Rain = 0
KFR1 242159Z 27004KT 31/08 A2972 RMK A01 T03130076  RH  023%=      5-min Rain = 0
KFR1 242200Z 27004KT 31/07 A2972 RMK A01 T03130071  RH  022%=      5-min Rain = 0
KFR1 242201Z 25008KT 31/07 A2971 RMK A01 T03120073  RH  023%=      5-min Rain = 0
KFR1 242202Z 23005KT 31/06 A2971 RMK A01 T03110061  RH  021%=      5-min Rain = 0
KFR1 242203Z 25007KT 31/06 A2971 RMK A01 T03100062  RH  021%=      5-min Rain = 0
KFR1 242204Z 25008KT 31/06 A2971 RMK A01 T03100060  RH  021%=      5-min Rain = 0
KFR1 242205Z 26007KT 31/06 A2971 RMK A01 T03090064  RH  021%=      5-min Rain = 0
KFR1 242206Z 27005KT 31/08 A2971 RMK A01 T03100077  RH  024%=      5-min Rain = 0
KFR1 242207Z 26005KT 31/09 A2971 RMK A01 T03090088  RH  025%=      5-min Rain = 0
KFR1 242208Z 27007KT 31/08 A2971 RMK A01 T03090076  RH  023%=      5-min Rain = 0
KFR1 242209Z 29006KT 31/09 A2972 RMK A01 T03090086  RH  025%=      5-min Rain = 0
KFR1 242210Z 31005KT 31/09 A2972 RMK A01 T03080085  RH  025%=      5-min Rain = 0
KFR1 242211Z 31005KT 31/07 A2972 RMK A01 T03060073  RH  023%=      5-min Rain = 0
KFR1 242212Z 33005KT 30/08 A2972 RMK A01 T03040076  RH  024%=      5-min Rain = 0
KFR1 242213Z 30004KT 30/08 A2972 RMK A01 T03040076  RH  024%=      5-min Rain = 0
KFR1 242214Z 31003KT 30/08 A2972 RMK A01 T03040075  RH  024%=      5-min Rain = 0
KFR1 242215Z 27003KT 31/08 A2972 RMK A01 T03050075  RH  024%=      5-min Rain = 0
KFR1 242216Z 27003KT 30/07 A2972 RMK A01 T03040072  RH  023%=      5-min Rain = 0
KFR1 242217Z 31003KT 30/07 A2971 RMK A01 T03040071  RH  023%=      5-min Rain = 0
KFR1 242218Z 28003KT 30/07 A2972 RMK A01 T03040070  RH  023%=      5-min Rain = 0
KFR1 242219Z 28004KT 30/07 A2972 RMK A01 T03040071  RH  023%=      5-min Rain = 0
KFR1 242220Z 28004KT 30/06 A2972 RMK A01 T03040064  RH  022%=      5-min Rain = 0
KFR1 242221Z 28005KT 30/06 A2972 RMK A01 T03030063  RH  022%=      5-min Rain = 0
KFR1 242222Z 29004KT 30/07 A2972 RMK A01 T03020065  RH  023%=      5-min Rain = 0
KFR1 242223Z 28004KT 30/07 A2972 RMK A01 T03020066  RH  023%=      5-min Rain = 0
KFR1 242224Z 29004KT 30/06 A2972 RMK A01 T03010063  RH  022%=      5-min Rain = 0
KFR1 242225Z 28002KT 30/06 A2972 RMK A01 T03010063  RH  022%=      5-min Rain = 0
KFR1 242226Z 27003KT 30/07 A2972 RMK A01 T03010066  RH  023%=      5-min Rain = 0
KFR1 242227Z 27004KT 30/07 A2972 RMK A01 T03000068  RH  023%=      5-min Rain = 0
KFR1 242228Z 27004KT 30/07 A2972 RMK A01 T03000066  RH  023%=      5-min Rain = 0
KFR1 242229Z 27003KT 30/06 A2972 RMK A01 T03000058  RH  022%=      5-min Rain = 0
KFR1 242230Z 31003KT 30/05 A2971 RMK A01 T02990047  RH  020%=      5-min Rain = 0
KFR1 242231Z 29005KT 30/05 A2971 RMK A01 T02990050  RH  021%=      5-min Rain = 0
KFR1 242232Z 28006KT 30/05 A2971 RMK A01 T02990050  RH  021%=      5-min Rain = 0
KFR1 242233Z 27004KT 30/05 A2971 RMK A01 T02990050  RH  021%=      5-min Rain = 0
KFR1 242234Z 28005KT 30/05 A2971 RMK A01 T02990051  RH  021%=      5-min Rain = 0
KFR1 242235Z 27005KT 30/05 A2971 RMK A01 T02990050  RH  021%=      5-min Rain = 0
KFR1 242236Z 25004KT 30/05 A2971 RMK A01 T02990051  RH  021%=      5-min Rain = 0
KFR1 242237Z 23004KT 30/05 A2971 RMK A01 T02990053  RH  021%=      5-min Rain = 0
KFR1 242238Z 24005KT 30/06 A2971 RMK A01 T02990055  RH  021%=      5-min Rain = 0
KFR1 242239Z 22006KT 30/06 A2971 RMK A01 T02990055  RH  021%=      5-min Rain = 0
KFR1 242240Z 24004KT 30/05 A2971 RMK A01 T02990052  RH  021%=      5-min Rain = 0
KFR1 242241Z 24006KT 30/05 A2971 RMK A01 T02990053  RH  021%=      5-min Rain = 0
KFR1 242242Z 24006KT 30/05 A2971 RMK A01 T02990050  RH  021%=      5-min Rain = 0
KFR1 242243Z 24006KT 30/05 A2971 RMK A01 T02990050  RH  021%=      5-min Rain = 0
KFR1 242244Z 25006KT 30/05 A2971 RMK A01 T02990050  RH  021%=      5-min Rain = 0
KFR1 242245Z 25006KT 30/05 A2971 RMK A01 T02980050  RH  021%=      5-min Rain = 0
KFR1 242246Z 26005KT 30/05 A2971 RMK A01 T02980048  RH  021%=      5-min Rain = 0
KFR1 242247Z 28004KT 30/05 A2971 RMK A01 T02970048  RH  021%=      5-min Rain = 0
KFR1 242248Z 28004KT 30/05 A297 RMK A01 T02970051  RH  021%=      5-min Rain = 0
KFR1 242249Z 28004KT 30/05 A297 RMK A01 T02970051  RH  021%=      5-min Rain = 0
KFR1 242250Z 29003KT 30/05 A297 RMK A01 T02960049  RH  021%=      5-min Rain = 0
KFR1 242251Z 28003KT 30/05 A297 RMK A01 T02960052  RH  021%=      5-min Rain = 0
KFR1 242252Z 27004KT 30/05 A297 RMK A01 T02960050  RH  021%=      5-min Rain = 0
KFR1 242253Z 25004KT 30/05 A297 RMK A01 T02960053  RH  021%=      5-min Rain = 0
KFR1 242254Z 25004KT 30/05 A297 RMK A01 T02950054  RH  022%=      5-min Rain = 0
KFR1 242255Z 25005KT 30/05 A297 RMK A01 T02950054  RH  022%=      5-min Rain = 0
KFR1 242256Z 25004KT 29/06 A297 RMK A01 T02940055  RH  022%=      5-min Rain = 0
KFR1 242257Z 26004KT 29/05 A297 RMK A01 T02940054  RH  022%=      5-min Rain = 0
KFR1 242258Z 29003KT 29/06 A297 RMK A01 T02940059  RH  023%=      5-min Rain = 0
KFR1 242259Z 29004KT 29/07 A2969 RMK A01 T02930069  RH  024%=      5-min Rain = 0
KFR1 242300Z 30003KT 29/07 A2969 RMK A01 T02920070  RH  025%=      5-min Rain = 0
KFR1 242301Z 29004KT 29/07 A2969 RMK A01 T02910069  RH  025%=      5-min Rain = 0
KFR1 242302Z 30004KT 29/06 A2969 RMK A01 T02900064  RH  024%=      5-min Rain = 0
KFR1 242303Z 30003KT 29/06 A2969 RMK A01 T02910063  RH  024%=      5-min Rain = 0
KFR1 242304Z 31003KT 29/07 A2969 RMK A01 T02910065  RH  024%=      5-min Rain = 0
KFR1 242305Z 32003KT 29/06 A2968 RMK A01 T02900064  RH  024%=      5-min Rain = 0
KFR1 242306Z 32004KT 29/07 A2968 RMK A01 T02900065  RH  024%=      5-min Rain = 0
KFR1 242307Z 32005KT 29/06 A2968 RMK A01 T02890058  RH  023%=      5-min Rain = 0
KFR1 242308Z 34004KT 29/05 A2968 RMK A01 T02890053  RH  022%=      5-min Rain = 0
KFR1 242309Z 33003KT 29/05 A2968 RMK A01 T02900052  RH  022%=      5-min Rain = 0
KFR1 242310Z 33004KT 29/06 A2968 RMK A01 T02910055  RH  022%=      5-min Rain = 0
KFR1 242311Z 33003KT 29/05 A2968 RMK A01 T02910054  RH  022%=      5-min Rain = 0
KFR1 242312Z 33004KT 29/06 A2968 RMK A01 T02920055  RH  022%=      5-min Rain = 0
KFR1 242313Z 33005KT 29/06 A2968 RMK A01 T02920059  RH  023%=      5-min Rain = 0
KFR1 242314Z 32005KT 29/06 A2968 RMK A01 T02920059  RH  023%=      5-min Rain = 0
KFR1 242315Z 31005KT 29/06 A2967 RMK A01 T02920061  RH  023%=      5-min Rain = 0
KFR1 242316Z 31005KT 29/07 A2967 RMK A01 T02920065  RH  024%=      5-min Rain = 0
KFR1 242317Z 32005KT 29/07 A2967 RMK A01 T02920069  RH  025%=      5-min Rain = 0
KFR1 242318Z 32005KT 29/07 A2967 RMK A01 T02910070  RH  025%=      5-min Rain = 0
KFR1 242319Z 32005KT 29/07 A2967 RMK A01 T02910073  RH  025%=      5-min Rain = 0
KFR1 242320Z 32004KT 29/08 A2967 RMK A01 T02910080  RH  027%=      5-min Rain = 0
KFR1 242321Z 32003KT 29/08 A2967 RMK A01 T02900083  RH  027%=      5-min Rain = 0
KFR1 242322Z 31005KT 29/08 A2967 RMK A01 T02900077  RH  026%=      5-min Rain = 0
KFR1 242323Z 31004KT 29/08 A2967 RMK A01 T02900075  RH  026%=      5-min Rain = 0
KFR1 242324Z 31003KT 29/07 A2967 RMK A01 T02900073  RH  026%=      5-min Rain = 0
KFR1 242325Z 31004KT 29/07 A2967 RMK A01 T02900072  RH  025%=      5-min Rain = 0
KFR1 242326Z 30005KT 29/07 A2967 RMK A01 T02900066  RH  024%=      5-min Rain = 0
KFR1 242327Z 31005KT 29/07 A2967 RMK A01 T02900065  RH  024%=      5-min Rain = 0
KFR1 242328Z 32005KT 29/07 A2967 RMK A01 T02900066  RH  024%=      5-min Rain = 0
KFR1 242329Z 32005KT 29/07 A2967 RMK A01 T02900069  RH  025%=      5-min Rain = 0
KFR1 242330Z 33004KT 29/07 A2967 RMK A01 T02900071  RH  025%=      5-min Rain = 0
KFR1 242331Z 33005KT 29/07 A2967 RMK A01 T02900073  RH  026%=      5-min Rain = 0
KFR1 242332Z 34005KT 29/07 A2967 RMK A01 T02890074  RH  026%=      5-min Rain = 0
KFR1 242333Z 32005KT 29/08 A2967 RMK A01 T02890078  RH  027%=      5-min Rain = 0
KFR1 242334Z 33004KT 29/08 A2967 RMK A01 T02880077  RH  027%=      5-min Rain = 0
KFR1 242335Z 34005KT 29/08 A2966 RMK A01 T02880075  RH  026%=      5-min Rain = 0
KFR1 242336Z 33004KT 29/07 A2966 RMK A01 T02870073  RH  026%=      5-min Rain = 0
KFR1 242337Z 33006KT 29/07 A2966 RMK A01 T02870071  RH  026%=      5-min Rain = 0
KFR1 242338Z 33006KT 29/07 A2965 RMK A01 T02870067  RH  025%=      5-min Rain = 0
KFR1 242339Z 33005KT 29/07 A2965 RMK A01 T02870066  RH  025%=      5-min Rain = 0
KFR1 242340Z 34006KT 29/07 A2965 RMK A01 T02870068  RH  025%=      5-min Rain = 0
KFR1 242341Z 33006KT 29/07 A2965 RMK A01 T02870069  RH  025%=      5-min Rain = 0
KFR1 242342Z 33006KT 29/07 A2964 RMK A01 T02870067  RH  025%=      5-min Rain = 0
KFR1 242343Z 33006KT 29/07 A2964 RMK A01 T02860069  RH  025%=      5-min Rain = 0
KFR1 242344Z 33005KT 29/07 A2964 RMK A01 T02860067  RH  025%=      5-min Rain = 0
KFR1 242345Z 33005KT 29/07 A2964 RMK A01 T02870069  RH  025%=      5-min Rain = 0
KFR1 242346Z 34005KT 29/07 A2964 RMK A01 T02860067  RH  025%=      5-min Rain = 0
KFR1 242347Z 34004KT 29/07 A2964 RMK A01 T02860065  RH  025%=      5-min Rain = 0
KFR1 242348Z 33004KT 29/07 A2964 RMK A01 T02850065  RH  025%=      5-min Rain = 0
KFR1 242349Z 33004KT 29/07 A2964 RMK A01 T02850066  RH  025%=      5-min Rain = 0
KFR1 242350Z 33003KT 29/07 A2964 RMK A01 T02850066  RH  025%=      5-min Rain = 0
KFR1 242351Z 31001KT 29/07 A2965 RMK A01 T02850065  RH  025%=      5-min Rain = 0
KFR1 242352Z 18003KT 29/07 A2965 RMK A01 T02850066  RH  025%=      5-min Rain = 0
KFR1 242353Z 16006KT 29/08 A2966 RMK A01 T02860078  RH  027%=      5-min Rain = 0
KFR1 242354Z 16009KT 29/07 A2966 RMK A01 T02850069  RH  026%=      5-min Rain = 0
KFR1 242355Z 17011KT 28/05 A2966 RMK A01 T02820054  RH  023%=      5-min Rain = 0
KFR1 242356Z 16010KT 28/05 A2966 RMK A01 T02800048  RH  023%=      5-min Rain = 0
KFR1 242357Z 15007KT 28/05 A2967 RMK A01 T02790046  RH  023%=      5-min Rain = 0
KFR1 242358Z 16009KT 28/05 A2966 RMK A01 T02780045  RH  023%=      5-min Rain = 0
KFR1 242359Z 17010KT 28/05 A2966 RMK A01 T02770046  RH  023%=      5-min Rain = 0
KFR1 250000Z 17011KT 28/05 A2966 RMK A01 T02770045  RH  023%=      5-min Rain = 0
KFR1 250001Z 17010KT 28/04 A2966 RMK A01 T02760044  RH  023%=      5-min Rain = 0
KFR1 250002Z 17009KT 28/04 A2966 RMK A01 T02760044  RH  023%=      5-min Rain = 0
KFR1 250003Z 16007KT 28/04 A2966 RMK A01 T02760043  RH  023%=      5-min Rain = 0
KFR1 250004Z 14005KT 28/04 A2966 RMK A01 T02750042  RH  022%=      5-min Rain = 0
KFR1 250005Z 14005KT 28/04 A2966 RMK A01 T02750042  RH  022%=      5-min Rain = 0
KFR1 250006Z 12005KT 28/04 A2966 RMK A01 T02750043  RH  023%=      5-min Rain = 0
KFR1 250007Z 13006KT 28/04 A2966 RMK A01 T02750043  RH  023%=      5-min Rain = 0
KFR1 250008Z 15007KT 28/04 A2966 RMK A01 T02750043  RH  023%=      5-min Rain = 0
KFR1 250009Z 16010KT 27/04 A2967 RMK A01 T02740044  RH  023%=      5-min Rain = 0
KFR1 250010Z 17009KT 28/04 A2967 RMK A01 T02750042  RH  023%=      5-min Rain = 0
KFR1 250011Z 17012KT 28/04 A2967 RMK A01 T02750040  RH  022%=      5-min Rain = 0
KFR1 250012Z 17011KT 28/04 A2967 RMK A01 T02750038  RH  022%=      5-min Rain = 0
KFR1 250013Z 16011KT 28/04 A2967 RMK A01 T02750038  RH  022%=      5-min Rain = 0
KFR1 250014Z 17011KT 28/04 A2967 RMK A01 T02750038  RH  022%=      5-min Rain = 0
KFR1 250015Z 16011KT 28/04 A2967 RMK A01 T02750038  RH  022%=      5-min Rain = 0
KFR1 250016Z 16009KT 28/04 A2967 RMK A01 T02750039  RH  022%=      5-min Rain = 0
KFR1 250017Z 15008KT 28/04 A2967 RMK A01 T02750040  RH  022%=      5-min Rain = 0
KFR1 250018Z 16008KT 28/04 A2967 RMK A01 T02750041  RH  022%=      5-min Rain = 0
KFR1 250019Z 16010KT 28/04 A2967 RMK A01 T02750040  RH  022%=      5-min Rain = 0
KFR1 250020Z 16009KT 27/04 A2967 RMK A01 T02740039  RH  022%=      5-min Rain = 0
KFR1 250021Z 16008KT 27/04 A2967 RMK A01 T02740040  RH  022%=      5-min Rain = 0
KFR1 250022Z 15006KT 27/04 A2967 RMK A01 T02730040  RH  022%=      5-min Rain = 0
KFR1 250023Z 15008KT 27/04 A2967 RMK A01 T02730039  RH  022%=      5-min Rain = 0
KFR1 250024Z 15006KT 27/04 A2967 RMK A01 T02730039  RH  022%=      5-min Rain = 0
KFR1 250025Z 15007KT 27/04 A2967 RMK A01 T02730038  RH  022%=      5-min Rain = 0
KFR1 250026Z 15007KT 27/04 A2967 RMK A01 T02730038  RH  022%=      5-min Rain = 0
KFR1 250027Z 15006KT 27/04 A2967 RMK A01 T02730038  RH  022%=      5-min Rain = 0
KFR1 250028Z 15008KT 27/04 A2967 RMK A01 T02730037  RH  022%=      5-min Rain = 0
KFR1 250029Z 14007KT 27/04 A2967 RMK A01 T02730037  RH  022%=      5-min Rain = 0
KFR1 250030Z 14007KT 27/04 A2967 RMK A01 T02730037  RH  022%=      5-min Rain = 0
KFR1 250031Z 13008KT 27/04 A2967 RMK A01 T02720038  RH  022%=      5-min Rain = 0
KFR1 250032Z 13008KT 27/04 A2967 RMK A01 T02720038  RH  022%=      5-min Rain = 0
KFR1 250033Z 13010KT 27/04 A2967 RMK A01 T02710038  RH  022%=      5-min Rain = 0
KFR1 250034Z 13009KT 27/04 A2967 RMK A01 T02710039  RH  023%=      5-min Rain = 0
KFR1 250035Z 14008KT 27/04 A2967 RMK A01 T02700039  RH  023%=      5-min Rain = 0
KFR1 250036Z 14008KT 27/04 A2968 RMK A01 T02700039  RH  023%=      5-min Rain = 0
KFR1 250037Z 14009KT 27/04 A2968 RMK A01 T02700039  RH  023%=      5-min Rain = 0
KFR1 250038Z 15007KT 27/04 A2968 RMK A01 T02690039  RH  023%=      5-min Rain = 0
KFR1 250039Z 15008KT 27/04 A2968 RMK A01 T02690040  RH  023%=      5-min Rain = 0
KFR1 250040Z 15007KT 27/04 A2968 RMK A01 T02690040  RH  023%=      5-min Rain = 0
KFR1 250041Z 15007KT 27/04 A2968 RMK A01 T02680039  RH  023%=      5-min Rain = 0
KFR1 250042Z 15007KT 27/04 A2968 RMK A01 T02680040  RH  023%=      5-min Rain = 0
KFR1 250043Z 15008KT 27/04 A2968 RMK A01 T02680040  RH  023%=      5-min Rain = 0
KFR1 250044Z 15007KT 27/04 A2968 RMK A01 T02680039  RH  023%=      5-min Rain = 0
KFR1 250045Z 15007KT 27/04 A2968 RMK A01 T02680040  RH  023%=      5-min Rain = 0
KFR1 250046Z 15007KT 27/04 A2968 RMK A01 T02670040  RH  023%=      5-min Rain = 0
KFR1 250047Z 15007KT 27/04 A2968 RMK A01 T02670039  RH  023%=      5-min Rain = 0
KFR1 250048Z 14007KT 27/04 A2968 RMK A01 T02670040  RH  023%=      5-min Rain = 0
KFR1 250049Z 14008KT 27/04 A2968 RMK A01 T02660040  RH  023%=      5-min Rain = 0
KFR1 250050Z 15008KT 27/04 A2968 RMK A01 T02660040  RH  023%=      5-min Rain = 0
KFR1 250051Z 15006KT 27/04 A2968 RMK A01 T02660040  RH  023%=      5-min Rain = 0
KFR1 250052Z 14008KT 27/04 A2968 RMK A01 T02660040  RH  023%=      5-min Rain = 0
KFR1 250053Z 14008KT 27/04 A2968 RMK A01 T02660040  RH  023%=      5-min Rain = 0
KFR1 250054Z 14008KT 27/04 A2968 RMK A01 T02660040  RH  023%=      5-min Rain = 0
KFR1 250055Z 13008KT 27/04 A2968 RMK A01 T02650040  RH  023%=      5-min Rain = 0
KFR1 250056Z 14008KT 27/04 A2968 RMK A01 T02650040  RH  023%=      5-min Rain = 0
KFR1 250057Z 14006KT 27/04 A2968 RMK A01 T02650040  RH  024%=      5-min Rain = 0
KFR1 250058Z 14008KT 26/04 A2968 RMK A01 T02640040  RH  024%=      5-min Rain = 0
KFR1 250059Z 14007KT 26/04 A2968 RMK A01 T02640041  RH  024%=      5-min Rain = 0
KFR1 250100Z 14008KT 26/04 A2968 RMK A01 T02630041  RH  024%=      5-min Rain = 0
KFR1 250101Z 14010KT 26/04 A2968 RMK A01 T02630041  RH  024%=      5-min Rain = 0
KFR1 250102Z 14009KT 26/04 A2968 RMK A01 T02630039  RH  024%=      5-min Rain = 0
KFR1 250103Z 13008KT 26/04 A2968 RMK A01 T02630040  RH  024%=      5-min Rain = 0
KFR1 250104Z 14008KT 26/04 A2968 RMK A01 T02630039  RH  024%=      5-min Rain = 0
KFR1 250105Z 14008KT 26/04 A2968 RMK A01 T02630039  RH  024%=      5-min Rain = 0
KFR1 250106Z 14009KT 26/04 A2968 RMK A01 T02630038  RH  023%=      5-min Rain = 0
KFR1 250107Z 13011KT 26/04 A2968 RMK A01 T02630038  RH  023%=      5-min Rain = 0
KFR1 250108Z 13010KT 26/04 A2968 RMK A01 T02630038  RH  023%=      5-min Rain = 0
KFR1 250109Z 13010KT 26/04 A2968 RMK A01 T02630038  RH  023%=      5-min Rain = 0
KFR1 250110Z 13008KT 26/04 A2968 RMK A01 T02640039  RH  024%=      5-min Rain = 0
KFR1 250111Z 13009KT 26/04 A2968 RMK A01 T02630039  RH  024%=      5-min Rain = 0
KFR1 250112Z 13009KT 26/04 A2968 RMK A01 T02630039  RH  024%=      5-min Rain = 0
KFR1 250113Z 13011G16KT 26/04 A2968 RMK A01 T02630039  RH  024%=      5-min Rain = 0
KFR1 250114Z 13012KT 26/04 A2968 RMK A01 T02630039  RH  024%=      5-min Rain = 0
KFR1 250115Z 13011G16KT 26/04 A2968 RMK A01 T02630040  RH  024%=      5-min Rain = 0
KFR1 250116Z 12013KT 26/04 A2968 RMK A01 T02630040  RH  024%=      5-min Rain = 0
KFR1 250117Z 12011KT 26/04 A2968 RMK A01 T02620041  RH  024%=      5-min Rain = 0
KFR1 250118Z 12012KT 26/04 A2968 RMK A01 T02620042  RH  024%=      5-min Rain = 0
KFR1 250119Z 12013KT 26/04 A2968 RMK A01 T02610042  RH  024%=      5-min Rain = 0
KFR1 250120Z 12013KT 26/04 A2968 RMK A01 T02600043  RH  025%=      5-min Rain = 0
KFR1 250121Z 12014G19KT 26/04 A2968 RMK A01 T02600044  RH  025%=      5-min Rain = 0
KFR1 250122Z 14017G22KT 26/05 A2968 RMK A01 T02570051  RH  027%=      5-min Rain = 0
KFR1 250123Z 14016G22KT 25/06 A2968 RMK A01 T02520057  RH  028%=      5-min Rain = 0
KFR1 250124Z 13014G19KT 25/06 A2968 RMK A01 T02490058  RH  029%=      5-min Rain = 0
KFR1 250125Z 13016KT 25/06 A2968 RMK A01 T02480058  RH  030%=      5-min Rain = 0
KFR1 250126Z 13014KT 25/06 A2968 RMK A01 T02470059  RH  030%=      5-min Rain = 0
KFR1 250127Z 13013G18KT 25/06 A2968 RMK A01 T02460061  RH  030%=      5-min Rain = 0
KFR1 250128Z 14014KT 25/06 A2968 RMK A01 T02450063  RH  031%=      5-min Rain = 0
KFR1 250129Z 13014G19KT 24/06 A2967 RMK A01 T02440063  RH  031%=      5-min Rain = 0
KFR1 250130Z 13012KT 24/06 A2967 RMK A01 T02440064  RH  031%=      5-min Rain = 0
KFR1 250131Z 12014KT 24/07 A2967 RMK A01 T02430066  RH  032%=      5-min Rain = 0
KFR1 250132Z 12015G20KT 24/07 A2967 RMK A01 T02420069  RH  033%=      5-min Rain = 0
KFR1 250133Z 13017G23KT 24/07 A2967 RMK A01 T02400069  RH  033%=      5-min Rain = 0
KFR1 250134Z 13016G22KT 24/07 A2967 RMK A01 T02390069  RH  034%=      5-min Rain = 0
KFR1 250135Z 13017G22KT 24/07 A2967 RMK A01 T02380070  RH  034%=      5-min Rain = 0
KFR1 250136Z 13018KT 24/07 A2967 RMK A01 T02360071  RH  034%=      5-min Rain = 0
KFR1 250137Z 13015KT 24/07 A2967 RMK A01 T02350071  RH  035%=      5-min Rain = 0
KFR1 250138Z 12014G20KT 24/07 A2967 RMK A01 T02350072  RH  035%=      5-min Rain = 0
KFR1 250139Z 12018KT 23/07 A2966 RMK A01 T02340071  RH  035%=      5-min Rain = 0
KFR1 250140Z 12013KT 23/07 A2966 RMK A01 T02330071  RH  035%=      5-min Rain = 0
KFR1 250141Z 11014KT 23/07 A2966 RMK A01 T02330071  RH  035%=      5-min Rain = 0
KFR1 250142Z 12018KT 23/07 A2966 RMK A01 T02320071  RH  036%=      5-min Rain = 0
KFR1 250143Z 11015KT 23/07 A2966 RMK A01 T02310072  RH  036%=      5-min Rain = 0
KFR1 250144Z 11016KT 23/07 A2965 RMK A01 T02300072  RH  036%=      5-min Rain = 0
KFR1 250145Z 10014KT 23/07 A2965 RMK A01 T02300072  RH  036%=      5-min Rain = 0
KFR1 250146Z 10013KT 23/07 A2965 RMK A01 T02290072  RH  036%=      5-min Rain = 0
KFR1 250147Z 10014KT 23/07 A2965 RMK A01 T02280072  RH  036%=      5-min Rain = 0
KFR1 250148Z 09015KT 23/07 A2964 RMK A01 T02280072  RH  037%=      5-min Rain = 0
KFR1 250149Z 10015KT 23/07 A2964 RMK A01 T02280072  RH  037%=      5-min Rain = 0
KFR1 250150Z 10014KT 23/07 A2964 RMK A01 T02280073  RH  037%=      5-min Rain = 0
KFR1 250151Z 10015KT 23/07 A2965 RMK A01 T02270073  RH  037%=      5-min Rain = 0
KFR1 250152Z 10014KT 23/07 A2965 RMK A01 T02260074  RH  038%=      5-min Rain = 0
KFR1 250153Z 10013KT 23/08 A2965 RMK A01 T02250075  RH  038%=      5-min Rain = 0
KFR1 250154Z 11014KT 22/08 A2965 RMK A01 T02240075  RH  038%=      5-min Rain = 0
KFR1 250155Z 11013KT 22/08 A2965 RMK A01 T02240075  RH  038%=      5-min Rain = 0
KFR1 250156Z 11011KT 22/08 A2965 RMK A01 T02240075  RH  038%=      5-min Rain = 0
KFR1 250157Z 11013KT 22/07 A2965 RMK A01 T02240074  RH  038%=      5-min Rain = 0
KFR1 250158Z 12011KT 22/08 A2965 RMK A01 T02240075  RH  038%=      5-min Rain = 0
KFR1 250159Z 12013KT 22/08 A2965 RMK A01 T02240075  RH  038%=      5-min Rain = 0
KFR1 250200Z 12013KT 22/08 A2965 RMK A01 T02240075  RH  038%=      5-min Rain = 0
KFR1 250201Z 12013KT 22/08 A2965 RMK A01 T02240076  RH  038%=      5-min Rain = 0
KFR1 250202Z 11013KT 22/08 A2965 RMK A01 T02230076  RH  039%=      5-min Rain = 0
KFR1 250203Z 11013KT 22/08 A2965 RMK A01 T02230076  RH  039%=      5-min Rain = 0
KFR1 250204Z 11012KT 22/08 A2965 RMK A01 T02220076  RH  039%=      5-min Rain = 0
KFR1 250205Z 11012KT 22/08 A2965 RMK A01 T02210077  RH  039%=      5-min Rain = 0
KFR1 250206Z 11014KT 22/08 A2965 RMK A01 T02210077  RH  040%=      5-min Rain = 0
KFR1 250207Z 11013KT 22/08 A2966 RMK A01 T02200077  RH  040%=      5-min Rain = 0
KFR1 250208Z 11013KT 22/08 A2966 RMK A01 T02210078  RH  040%=      5-min Rain = 0
KFR1 250209Z 12013KT 22/08 A2966 RMK A01 T02210078  RH  040%=      5-min Rain = 0
KFR1 250210Z 12012KT 22/08 A2966 RMK A01 T02200078  RH  040%=      5-min Rain = 0
KFR1 250211Z 12010KT 22/08 A2966 RMK A01 T02210079  RH  040%=      5-min Rain = 0
KFR1 250212Z 13012KT 22/08 A2967 RMK A01 T02200079  RH  040%=      5-min Rain = 0
KFR1 250213Z 13011KT 22/08 A2967 RMK A01 T02190079  RH  040%=      5-min Rain = 0
KFR1 250214Z 13010KT 22/08 A2967 RMK A01 T02190079  RH  041%=      5-min Rain = 0
KFR1 250215Z 13008KT 22/08 A2967 RMK A01 T02190079  RH  041%=      5-min Rain = 0
KFR1 250216Z 12011KT 22/08 A2967 RMK A01 T02180080  RH  041%=      5-min Rain = 0
KFR1 250217Z 12010KT 22/08 A2967 RMK A01 T02180081  RH  041%=      5-min Rain = 0
KFR1 250218Z 12010KT 22/08 A2967 RMK A01 T02170080  RH  041%=      5-min Rain = 0
KFR1 250219Z 12009KT 22/08 A2968 RMK A01 T02170081  RH  042%=      5-min Rain = 0
KFR1 250220Z 12009KT 22/08 A2968 RMK A01 T02160082  RH  042%=      5-min Rain = 0
KFR1 250221Z 12011KT 22/08 A2968 RMK A01 T02150082  RH  042%=      5-min Rain = 0
KFR1 250222Z 12011KT 22/08 A2968 RMK A01 T02150082  RH  042%=      5-min Rain = 0
KFR1 250223Z 11010KT 22/08 A2968 RMK A01 T02150083  RH  043%=      5-min Rain = 0
KFR1 250224Z 11011KT 22/08 A2968 RMK A01 T02150083  RH  043%=      5-min Rain = 0
KFR1 250225Z 12011KT 21/08 A2968 RMK A01 T02140083  RH  043%=      5-min Rain = 0
KFR1 250226Z 12010KT 21/08 A2968 RMK A01 T02130083  RH  043%=      5-min Rain = 0
KFR1 250227Z 12010KT 21/08 A2968 RMK A01 T02130084  RH  043%=      5-min Rain = 0
KFR1 250228Z 12010KT 21/08 A2968 RMK A01 T02130084  RH  043%=      5-min Rain = 0
KFR1 250229Z 12011KT 21/08 A2968 RMK A01 T02130084  RH  043%=      5-min Rain = 0
KFR1 250230Z 12009KT 21/08 A2968 RMK A01 T02130084  RH  044%=      5-min Rain = 0
KFR1 250231Z 11008KT 21/08 A2968 RMK A01 T02130084  RH  044%=      5-min Rain = 0
KFR1 250232Z 11008KT 21/08 A2968 RMK A01 T02130084  RH  044%=      5-min Rain = 0
KFR1 250233Z 12008KT 21/08 A2968 RMK A01 T02120084  RH  044%=      5-min Rain = 0
KFR1 250234Z 11009KT 21/09 A2968 RMK A01 T02120085  RH  044%=      5-min Rain = 0
KFR1 250235Z 11009KT 21/08 A2969 RMK A01 T02110084  RH  044%=      5-min Rain = 0
KFR1 250236Z 12009KT 21/09 A2969 RMK A01 T02110085  RH  044%=      5-min Rain = 0
KFR1 250237Z 12010KT 21/08 A2969 RMK A01 T02110084  RH  044%=      5-min Rain = 0
KFR1 250238Z 13009KT 21/08 A2969 RMK A01 T02120084  RH  044%=      5-min Rain = 0
KFR1 250239Z 12008KT 21/08 A2969 RMK A01 T02130084  RH  044%=      5-min Rain = 0
KFR1 250240Z 12009KT 21/08 A2969 RMK A01 T02120084  RH  044%=      5-min Rain = 0
KFR1 250241Z 12007KT 21/08 A2969 RMK A01 T02130084  RH  044%=      5-min Rain = 0
KFR1 250242Z 12008KT 21/08 A2969 RMK A01 T02120084  RH  044%=      5-min Rain = 0
KFR1 250243Z 12007KT 21/08 A2969 RMK A01 T02120084  RH  044%=      5-min Rain = 0
KFR1 250244Z 11009KT 21/08 A2968 RMK A01 T02120084  RH  044%=      5-min Rain = 0
KFR1 250245Z 11008KT 21/08 A2968 RMK A01 T02120083  RH  044%=      5-min Rain = 0
KFR1 250246Z 11007KT 21/08 A2968 RMK A01 T02120083  RH  044%=      5-min Rain = 0
KFR1 250247Z 11009KT 21/08 A2968 RMK A01 T02120083  RH  044%=      5-min Rain = 0
KFR1 250248Z 11008KT 21/08 A2968 RMK A01 T02110083  RH  044%=      5-min Rain = 0
KFR1 250249Z 11009KT 21/08 A2968 RMK A01 T02110083  RH  044%=      5-min Rain = 0
KFR1 250250Z 11008KT 21/08 A2969 RMK A01 T02120083  RH  044%=      5-min Rain = 0
KFR1 250251Z 11008KT 21/08 A2969 RMK A01 T02120082  RH  043%=      5-min Rain = 0
KFR1 250252Z 10007KT 21/08 A2969 RMK A01 T02120082  RH  043%=      5-min Rain = 0
KFR1 250253Z 10007KT 21/08 A2969 RMK A01 T02120082  RH  043%=      5-min Rain = 0
KFR1 250254Z 10008KT 21/08 A2969 RMK A01 T02120081  RH  043%=      5-min Rain = 0
KFR1 250255Z 10007KT 21/08 A2969 RMK A01 T02130081  RH  043%=      5-min Rain = 0
KFR1 250256Z 11006KT 21/08 A2969 RMK A01 T02130081  RH  042%=      5-min Rain = 0
KFR1 250257Z 11006KT 21/08 A2969 RMK A01 T02130081  RH  042%=      5-min Rain = 0
KFR1 250258Z 12005KT 21/08 A2969 RMK A01 T02130081  RH  043%=      5-min Rain = 0
KFR1 250259Z 15005KT 21/08 A2969 RMK A01 T02130081  RH  042%=      5-min Rain = 0
KFR1 250300Z 15005KT 21/08 A2969 RMK A01 T02140080  RH  042%=      5-min Rain = 0
KFR1 250301Z 15004KT 21/08 A2969 RMK A01 T02140081  RH  042%=      5-min Rain = 0
KFR1 250302Z 15004KT 21/08 A2969 RMK A01 T02140082  RH  043%=      5-min Rain = 0
KFR1 250303Z 14004KT 21/08 A297 RMK A01 T02140082  RH  043%=      5-min Rain = 0
KFR1 250304Z 15005KT 21/08 A297 RMK A01 T02130082  RH  043%=      5-min Rain = 0
KFR1 250305Z 14005KT 21/08 A297 RMK A01 T02130083  RH  043%=      5-min Rain = 0
KFR1 250306Z 15005KT 21/08 A297 RMK A01 T02120083  RH  043%=      5-min Rain = 0
KFR1 250307Z 15005KT 21/08 A297 RMK A01 T02120084  RH  044%=      5-min Rain = 0
KFR1 250308Z 16006KT 21/09 A297 RMK A01 T02110085  RH  044%=      5-min Rain = 0
KFR1 250309Z 16005KT 21/09 A2969 RMK A01 T02110086  RH  045%=      5-min Rain = 0
KFR1 250310Z 17005KT 21/09 A2969 RMK A01 T02100086  RH  045%=      5-min Rain = 0
KFR1 250311Z 17009G14KT 21/09 A2969 RMK A01 T02100088  RH  046%=      5-min Rain = 0
KFR1 250312Z 18007KT 21/09 A2969 RMK A01 T02090089  RH  046%=      5-min Rain = 0
KFR1 250313Z 17012G18KT 21/09 A2969 RMK A01 T02080090  RH  047%=      5-min Rain = 0
KFR1 250314Z 16013G18KT 21/09 A2969 RMK A01 T02080091  RH  047%=      5-min Rain = 0
KFR1 250315Z 17010G15KT 21/09 A2969 RMK A01 T02070092  RH  048%=      5-min Rain = 0
KFR1 250316Z 17012KT 21/09 A2968 RMK A01 T02070092  RH  048%=      5-min Rain = 0
KFR1 250317Z 17014KT 21/09 A2968 RMK A01 T02070093  RH  048%=      5-min Rain = 0
KFR1 250318Z 17011KT 21/09 A2969 RMK A01 T02070093  RH  048%=      5-min Rain = 0
KFR1 250319Z 17009KT 21/09 A2969 RMK A01 T02070093  RH  048%=      5-min Rain = 0
KFR1 250320Z 18009KT 21/09 A297 RMK A01 T02070093  RH  048%=      5-min Rain = 0
KFR1 250321Z 17015KT 21/09 A297 RMK A01 T02060093  RH  048%=      5-min Rain = 0
KFR1 250322Z 18013KT 21/09 A2971 RMK A01 T02070093  RH  048%=      5-min Rain = 0
KFR1 250323Z 17012KT 21/09 A2971 RMK A01 T02070093  RH  048%=      5-min Rain = 0
KFR1 250324Z 18016G21KT 21/09 A2971 RMK A01 T02070094  RH  048%=      5-min Rain = 0
KFR1 250325Z 17015KT 21/09 A2972 RMK A01 T02060094  RH  048%=      5-min Rain = 0
KFR1 250326Z 17015G20KT 21/09 A2972 RMK A01 T02060094  RH  049%=      5-min Rain = 0
KFR1 250327Z 16014G21KT 21/09 A2973 RMK A01 T02050094  RH  049%=      5-min Rain = 0
KFR1 250328Z 17020G26KT 20/09 A2973 RMK A01 T02030093  RH  049%=      5-min Rain = 0
KFR1 250329Z 17018KT 20/09 A2973 RMK A01 T02010093  RH  050%=      5-min Rain = 0
KFR1 250330Z 17014KT 20/09 A2973 RMK A01 T02000093  RH  050%=      5-min Rain = 0
KFR1 250331Z 16018KT 20/09 A2973 RMK A01 T01980092  RH  051%=      5-min Rain = 0
KFR1 250332Z 16015G21KT 20/09 A2974 RMK A01 T01970092  RH  051%=      5-min Rain = 0
KFR1 250333Z 16015KT 20/09 A2974 RMK A01 T01960092  RH  051%=      5-min Rain = 0
KFR1 250334Z 16013G19KT 20/09 A2974 RMK A01 T01950092  RH  051%=      5-min Rain = 0
KFR1 250335Z 16015KT 20/09 A2974 RMK A01 T01950092  RH  051%=      5-min Rain = 0
KFR1 250336Z 16014KT 20/09 A2974 RMK A01 T01950092  RH  051%=      5-min Rain = 0
KFR1 250337Z 15015G22KT 20/09 A2974 RMK A01 T01950091  RH  051%=      5-min Rain = 0
KFR1 250338Z 15014G19KT 20/09 A2974 RMK A01 T01950090  RH  051%=      5-min Rain = 0
KFR1 250339Z 15014G20KT 20/09 A2974 RMK A01 T01950090  RH  051%=      5-min Rain = 0
KFR1 250340Z 15016G23KT 20/09 A2974 RMK A01 T01950090  RH  051%=      5-min Rain = 0
KFR1 250341Z 15014G20KT 20/09 A2974 RMK A01 T01950091  RH  051%=      5-min Rain = 0
KFR1 250342Z 15019G26KT 20/09 A2974 RMK A01 T01950091  RH  051%=      5-min Rain = 0
KFR1 250343Z 14017G25KT 20/09 A2974 RMK A01 T01950091  RH  051%=      5-min Rain = 0
KFR1 250344Z 15017G25KT 20/09 A2974 RMK A01 T01950092  RH  051%=      5-min Rain = 0
KFR1 250345Z 14016G21KT 20/09 A2974 RMK A01 T01950093  RH  052%=      5-min Rain = 0
KFR1 250346Z 14016G25KT 20/09 A2974 RMK A01 T01950093  RH  052%=      5-min Rain = 0
KFR1 250347Z 14016G25KT 20/09 A2973 RMK A01 T01950094  RH  052%=      5-min Rain = 0
KFR1 250348Z 15013G19KT 20/09 A2973 RMK A01 T01950094  RH  052%=      5-min Rain = 0
KFR1 250349Z 14014G21KT 20/09 A2973 RMK A01 T01950094  RH  052%=      5-min Rain = 0
KFR1 250350Z 16015G24KT 20/09 A2973 RMK A01 T01950094  RH  052%=      5-min Rain = 0
KFR1 250351Z 14018G28KT 20/09 A2973 RMK A01 T01950093  RH  052%=      5-min Rain = 0
KFR1 250352Z 14017G26KT 20/09 A2973 RMK A01 T01960092  RH  051%=      5-min Rain = 0
KFR1 250353Z 13019G31KT 20/09 A2974 RMK A01 T01960092  RH  051%=      5-min Rain = 0
KFR1 250354Z 14020G25KT 20/09 A2974 RMK A01 T01960093  RH  051%=      5-min Rain = 0
KFR1 250355Z 14015G23KT 20/09 A2974 RMK A01 T01960094  RH  052%=      5-min Rain = 0
KFR1 250356Z 14017G23KT 20/10 A2973 RMK A01 T01960095  RH  052%=      5-min Rain = 0
KFR1 250357Z 14015G21KT 20/10 A2974 RMK A01 T01950096  RH  053%=      5-min Rain = 0
KFR1 250358Z 14015G20KT 19/10 A2973 RMK A01 T01940096  RH  053%=      5-min Rain = 0
KFR1 250359Z 13020G25KT 19/10 A2973 RMK A01 T01940097  RH  053%=      5-min Rain = 0
KFR1 250400Z 13022G27KT 19/10 A2973 RMK A01 T01930097  RH  054%=      5-min Rain = 0
KFR1 250401Z 14018G24KT 19/10 A2973 RMK A01 T01920097  RH  054%=      5-min Rain = 0
KFR1 250402Z 13017KT 19/10 A2973 RMK A01 T01920098  RH  054%=      5-min Rain = 0
KFR1 250403Z 13018KT 19/10 A2974 RMK A01 T01910098  RH  055%=      5-min Rain = 0
KFR1 250404Z 12018G23KT 19/10 A2974 RMK A01 T01910099  RH  055%=      5-min Rain = 0
KFR1 250405Z 13020G25KT 19/10 A2974 RMK A01 T01900099  RH  056%=      5-min Rain = 0
KFR1 250406Z 13022KT 19/10 A2974 RMK A01 T01890100  RH  056%=      5-min Rain = 0
KFR1 250407Z 13021G26KT 19/10 A2973 RMK A01 T01870100  RH  057%=      5-min Rain = 0
KFR1 250408Z 13022G29KT 19/10 A2974 RMK A01 T01860100  RH  057%=      5-min Rain = 0
KFR1 250409Z 13018G24KT 19/10 A2974 RMK A01 T01850100  RH  057%=      5-min Rain = 0
KFR1 250410Z 12019G24KT 19/10 A2974 RMK A01 T01850100  RH  058%=      5-min Rain = 0
KFR1 250411Z 13017G22KT 18/10 A2974 RMK A01 T01840100  RH  058%=      5-min Rain = 0
KFR1 250412Z 12018KT 18/10 A2974 RMK A01 T01840100  RH  058%=      5-min Rain = 0
KFR1 250413Z 13017G23KT 18/10 A2975 RMK A01 T01840100  RH  058%=      5-min Rain = 0
KFR1 250414Z 13017KT 18/10 A2975 RMK A01 T01830100  RH  058%=      5-min Rain = 0
KFR1 250415Z 13017G23KT 18/10 A2975 RMK A01 T01830099  RH  058%=      5-min Rain = 0
KFR1 250416Z 12020KT 18/10 A2975 RMK A01 T01830099  RH  058%=      5-min Rain = 0
KFR1 250417Z 12019G24KT 18/10 A2975 RMK A01 T01830099  RH  058%=      5-min Rain = 0
KFR1 250418Z 13022G28KT 18/10 A2975 RMK A01 T01830098  RH  058%=      5-min Rain = 0
KFR1 250419Z 12017KT 18/10 A2976 RMK A01 T01820098  RH  058%=      5-min Rain = 0
KFR1 250420Z 12018KT 18/10 A2976 RMK A01 T01820098  RH  058%=      5-min Rain = 0
KFR1 250421Z 11017KT 18/10 A2977 RMK A01 T01820098  RH  058%=      5-min Rain = 0
KFR1 250422Z 11018KT 18/10 A2977 RMK A01 T01810098  RH  058%=      5-min Rain = 0
KFR1 250423Z 11020KT 18/10 A2978 RMK A01 T01810098  RH  058%=      5-min Rain = 0
KFR1 250424Z 10018KT 18/10 A2978 RMK A01 T01810098  RH  058%=      5-min Rain = 0
KFR1 250425Z 11017KT 18/10 A2978 RMK A01 T01800098  RH  058%=      5-min Rain = 0
KFR1 250426Z 11018KT 18/10 A2978 RMK A01 T01800098  RH  058%=      5-min Rain = 0
KFR1 250427Z 11018G25KT 18/10 A2978 RMK A01 T01800098  RH  059%=      5-min Rain = 0
KFR1 250428Z 11017G22KT 18/10 A2979 RMK A01 T01800098  RH  059%=      5-min Rain = 0
KFR1 250429Z 11014KT 18/10 A2979 RMK A01 T01800098  RH  059%=      5-min Rain = 0
KFR1 250430Z 10013KT 18/10 A2979 RMK A01 T01790098  RH  059%=      5-min Rain = 0
KFR1 250431Z 10015G20KT 18/10 A2979 RMK A01 T01790098  RH  059%=      5-min Rain = 0
KFR1 250432Z 10015KT 18/10 A298 RMK A01 T01790098  RH  059%=      5-min Rain = 0
KFR1 250433Z 09017KT 18/10 A298 RMK A01 T01790098  RH  059%=      5-min Rain = 0
KFR1 250434Z 08013G24KT 18/10 A298 RMK A01 T01790098  RH  059%=      5-min Rain = 0
KFR1 250435Z 10019KT 18/10 A298 RMK A01 T01790098  RH  059%=      5-min Rain = 0
KFR1 250436Z 11016KT 18/10 A2981 RMK A01 T01790099  RH  059%=      5-min Rain = 0
KFR1 250437Z 09013KT 18/10 A2981 RMK A01 T01790099  RH  060%=      5-min Rain = 0
KFR1 250438Z 09012KT 18/10 A2981 RMK A01 T01790100  RH  060%=      5-min Rain = 0
KFR1 250439Z 08011KT 18/10 A2981 RMK A01 T01780100  RH  060%=      5-min Rain = 0
KFR1 250440Z 08015KT 18/10 A2981 RMK A01 T01780100  RH  060%=      5-min Rain = 0
KFR1 250441Z 08017KT 18/10 A2981 RMK A01 T01770101  RH  061%=      5-min Rain = 0
KFR1 250442Z 09015KT 18/10 A2982 RMK A01 T01770102  RH  061%=      5-min Rain = 0
KFR1 250443Z 08011KT 18/10 A2982 RMK A01 T01760101  RH  061%=      5-min Rain = 0
KFR1 250444Z 09016KT 18/10 A2982 RMK A01 T01760102  RH  062%=      5-min Rain = 0
KFR1 250445Z 09017KT 18/10 A2981 RMK A01 T01750103  RH  063%=      5-min Rain = 0
KFR1 250446Z 10016G22KT 17/10 A2981 RMK A01 T01740103  RH  063%=      5-min Rain = 0
KFR1 250447Z 11015KT 17/10 A2981 RMK A01 T01740104  RH  064%=      5-min Rain = 0
KFR1 250448Z 11017G24KT 17/11 A2981 RMK A01 T01730105  RH  064%=      5-min Rain = 0
KFR1 250449Z 10013KT 17/11 A2981 RMK A01 T01730105  RH  064%=      5-min Rain = 0
KFR1 250450Z 11014KT 17/11 A2981 RMK A01 T01720105  RH  064%=      5-min Rain = 0
KFR1 250451Z 10011KT 17/11 A2981 RMK A01 T01720105  RH  065%=      5-min Rain = 0
KFR1 250452Z 09012G17KT 17/11 A2981 RMK A01 T01710106  RH  065%=      5-min Rain = 0
KFR1 250453Z 09014KT 17/11 A2982 RMK A01 T01700106  RH  066%=      5-min Rain = 0
KFR1 250454Z 10015G20KT 17/11 A2982 RMK A01 T01700107  RH  066%=      5-min Rain = 0
KFR1 250455Z 11016KT 17/11 A2981 RMK A01 T01690107  RH  067%=      5-min Rain = 0
KFR1 250456Z 11015KT 17/11 A2981 RMK A01 T01690108  RH  067%=      5-min Rain = 0
KFR1 250457Z 12012KT 17/11 A298 RMK A01 T01680108  RH  068%=      5-min Rain = 0
KFR1 250458Z 12014KT 17/11 A298 RMK A01 T01680108  RH  068%=      5-min Rain = 0
KFR1 250459Z 11015KT 17/11 A298 RMK A01 T01680109  RH  068%=      5-min Rain = 0

Page generated in 0.1515 seconds.